Wetterdaten: Dienstag, 22.04.2014
Datum Zeit Temp. Aussen +5cm Feuchte Auss Luftdruck Regen Sonnenschein Regendauer UV Solar Windben
22.04.2014 00:00 11,5 C 10,0 C 85 % 1004,4 hPa 0,0 l/m 0 min 0 min 0,0 UV-I 0 W/m 0,0 km/h (0 Bft)
22.04.2014 00:02 11,4 C 10,0 C 86 % 1004,5 hPa 0,0 l/m 0 min 0 min 0,0 UV-I 0 W/m 0,0 km/h (0 Bft)
22.04.2014 00:06 11,3 C 9,4 C 86 % 1004,5 hPa 0,0 l/m 0 min 0 min 0,0 UV-I 0 W/m 0,0 km/h (0 Bft)
22.04.2014 00:08 11,2 C 9,4 C 86 % 1004,6 hPa 0,0 l/m 0 min 0 min 0,0 UV-I 0 W/m 0,0 km/h (0 Bft)
22.04.2014 00:10 11,1 C 9,4 C 86 % 1004,6 hPa 0,0 l/m 0 min 0 min 0,0 UV-I 0 W/m 5,1 km/h (1 Bft)
22.04.2014 00:12 11,1 C 9,4 C 86 % 1004,6 hPa 0,0 l/m 0 min 0 min 0,0 UV-I 0 W/m 0,0 km/h (0 Bft)
22.04.2014 00:14 11,1 C 9,4 C 87 % 1004,6 hPa 0,0 l/m 0 min 0 min 0,0 UV-I 0 W/m 2,6 km/h (1 Bft)
22.04.2014 00:16 11,0 C 9,4 C 87 % 1004,6 hPa 0,0 l/m 0 min 0 min 0,0 UV-I 0 W/m 0,0 km/h (0 Bft)
22.04.2014 00:18 11,0 C 9,4 C 87 % 1004,6 hPa 0,0 l/m 0 min 0 min 0,0 UV-I 0 W/m 0,0 km/h (0 Bft)
22.04.2014 00:20 10,9 C 9,4 C 87 % 1004,6 hPa 0,0 l/m 0 min 0 min 0,0 UV-I 0 W/m 0,0 km/h (0 Bft)
22.04.2014 00:22 10,8 C 8,9 C 87 % 1004,5 hPa 0,0 l/m 0 min 0 min 0,0 UV-I 0 W/m 0,0 km/h (0 Bft)
22.04.2014 00:24 10,8 C 8,9 C 87 % 1004,7 hPa 0,0 l/m 0 min 0 min 0,0 UV-I 0 W/m 0,0 km/h (0 Bft)
22.04.2014 00:26 10,8 C 8,9 C 88 % 1004,6 hPa 0,0 l/m 0 min 0 min 0,0 UV-I 0 W/m 2,6 km/h (1 Bft)
22.04.2014 00:28 10,7 C 8,9 C 88 % 1004,6 hPa 0,0 l/m 0 min 0 min 0,0 UV-I 0 W/m 0,0 km/h (0 Bft)
22.04.2014 00:30 10,7 C 9,4 C 88 % 1004,6 hPa 0,0 l/m 0 min 0 min 0,0 UV-I 0 W/m 5,1 km/h (1 Bft)
22.04.2014 00:32 10,7 C 8,9 C 88 % 1004,6 hPa 0,0 l/m 0 min 0 min 0,0 UV-I 0 W/m 5,1 km/h (1 Bft)
22.04.2014 00:34 10,6 C 8,9 C 88 % 1004,5 hPa 0,0 l/m 0 min 0 min 0,0 UV-I 0 W/m 0,0 km/h (0 Bft)
22.04.2014 00:36 10,6 C 8,9 C 88 % 1004,6 hPa 0,0 l/m 0 min 0 min 0,0 UV-I 0 W/m 0,0 km/h (0 Bft)
22.04.2014 00:38 10,6 C 8,9 C 88 % 1004,6 hPa 0,0 l/m 0 min 0 min 0,0 UV-I 0 W/m 0,0 km/h (0 Bft)
22.04.2014 00:40 10,5 C 8,9 C 88 % 1004,5 hPa 0,0 l/m 0 min 0 min 0,0 UV-I 0 W/m 0,0 km/h (0 Bft)
22.04.2014 00:42 10,5 C 8,9 C 89 % 1004,6 hPa 0,0 l/m 0 min 0 min 0,0 UV-I 0 W/m 0,0 km/h (0 Bft)
22.04.2014 00:44 10,5 C 8,9 C 89 % 1004,6 hPa 0,0 l/m 0 min 0 min 0,0 UV-I 0 W/m 2,6 km/h (1 Bft)
22.04.2014 00:46 10,4 C 8,9 C 89 % 1004,6 hPa 0,0 l/m 0 min 0 min 0,0 UV-I 0 W/m 0,0 km/h (0 Bft)
22.04.2014 00:48 10,4 C 8,9 C 89 % 1004,7 hPa 0,0 l/m 0 min 0 min 0,0 UV-I 0 W/m 0,0 km/h (0 Bft)
22.04.2014 00:50 10,3 C 8,9 C 89 % 1004,7 hPa 0,0 l/m 0 min 0 min 0,0 UV-I 0 W/m 0,0 km/h (0 Bft)
22.04.2014 00:52 10,3 C 8,9 C 89 % 1004,6 hPa 0,0 l/m 0 min 0 min 0,0 UV-I 0 W/m 0,0 km/h (0 Bft)
22.04.2014 00:54 10,2 C 8,3 C 89 % 1004,7 hPa 0,0 l/m 0 min 0 min 0,0 UV-I 0 W/m 0,0 km/h (0 Bft)
22.04.2014 00:56 10,1 C 8,3 C 89 % 1004,7 hPa 0,0 l/m 0 min 0 min 0,0 UV-I 0 W/m 0,0 km/h (0 Bft)
22.04.2014 00:58 10,1 C 8,3 C 89 % 1004,7 hPa 0,0 l/m 0 min 0 min 0,0 UV-I 0 W/m 0,0 km/h (0 Bft)
22.04.2014 01:00 10,0 C 8,3 C 89 % 1004,7 hPa 0,0 l/m 0 min 0 min 0,0 UV-I 0 W/m 0,0 km/h (0 Bft)
22.04.2014 01:03 10,0 C 8,3 C 90 % 1004,8 hPa 0,0 l/m 0 min 0 min 0,0 UV-I 0 W/m 0,0 km/h (0 Bft)
22.04.2014 01:04 10,0 C 8,3 C 90 % 1004,8 hPa 0,0 l/m 0 min 0 min 0,0 UV-I 0 W/m 0,0 km/h (0 Bft)
22.04.2014 01:06 10,0 C 8,3 C 90 % 1005,0 hPa 0,0 l/m 0 min 0 min 0,0 UV-I 0 W/m 0,0 km/h (0 Bft)
22.04.2014 01:08 10,0 C 8,3 C 90 % 1005,0 hPa 0,0 l/m 0 min 0 min 0,0 UV-I 0 W/m 0,0 km/h (0 Bft)
22.04.2014 01:10 10,0 C 8,3 C 90 % 1005,0 hPa 0,0 l/m 0 min 0 min 0,0 UV-I 0 W/m 0,0 km/h (0 Bft)
22.04.2014 01:12 10,0 C 8,3 C 90 % 1005,0 hPa 0,0 l/m 0 min 0 min 0,0 UV-I 0 W/m 0,0 km/h (0 Bft)
22.04.2014 01:14 10,0 C 8,3 C 90 % 1005,1 hPa 0,0 l/m 0 min 0 min 0,0 UV-I 0 W/m 2,6 km/h (1 Bft)
22.04.2014 01:16 10,1 C 8,3 C 90 % 1005,1 hPa 0,0 l/m 0 min 0 min 0,0 UV-I 0 W/m 0,0 km/h (0 Bft)
22.04.2014 01:18 10,1 C 8,3 C 90 % 1005,1 hPa 0,0 l/m 0 min 0 min 0,0 UV-I 0 W/m 0,0 km/h (0 Bft)
22.04.2014 01:20 10,1 C 8,3 C 90 % 1005,1 hPa 0,0 l/m 0 min 0 min 0,0 UV-I 0 W/m 2,6 km/h (1 Bft)
22.04.2014 01:22 10,1 C 8,9 C 90 % 1005,0 hPa 0,0 l/m 0 min 0 min 0,0 UV-I 0 W/m 0,0 km/h (0 Bft)
22.04.2014 01:24 10,1 C 8,9 C 90 % 1005,1 hPa 0,0 l/m 0 min 0 min 0,0 UV-I 0 W/m 7,7 km/h (2 Bft)
22.04.2014 01:26 10,1 C 8,9 C 90 % 1005,1 hPa 0,0 l/m 0 min 0 min 0,0 UV-I 0 W/m 0,0 km/h (0 Bft)
22.04.2014 01:28 10,1 C 8,9 C 90 % 1005,1 hPa 0,0 l/m 0 min 0 min 0,0 UV-I 0 W/m 0,0 km/h (0 Bft)
22.04.2014 01:30 10,1 C 8,9 C 90 % 1005,0 hPa 0,0 l/m 0 min 0 min 0,0 UV-I 0 W/m 0,0 km/h (0 Bft)
22.04.2014 01:32 10,1 C 8,9 C 90 % 1005,0 hPa 0,0 l/m 0 min 0 min 0,0 UV-I 0 W/m 0,0 km/h (0 Bft)
22.04.2014 01:34 10,1 C 8,9 C 90 % 1005,0 hPa 0,0 l/m 0 min 0 min 0,0 UV-I 0 W/m 0,0 km/h (0 Bft)
22.04.2014 01:36 10,1 C 8,9 C 90 % 1005,0 hPa 0,0 l/m 0 min 0 min 0,0 UV-I 0 W/m 2,6 km/h (1 Bft)
22.04.2014 01:38 10,1 C 8,9 C 90 % 1005,1 hPa 0,0 l/m 0 min 0 min 0,0 UV-I 0 W/m 5,1 km/h (1 Bft)
22.04.2014 01:40 10,1 C 8,9 C 90 % 1005,1 hPa 0,0 l/m 0 min 0 min 0,0 UV-I 0 W/m 0,0 km/h (0 Bft)
22.04.2014 01:42 10,1 C 8,9 C 90 % 1005,1 hPa 0,0 l/m 0 min 0 min 0,0 UV-I 0 W/m 2,6 km/h (1 Bft)
22.04.2014 01:44 10,0 C 8,9 C 90 % 1005,1 hPa 0,0 l/m 0 min 0 min 0,0 UV-I 0 W/m 0,0 km/h (0 Bft)
22.04.2014 01:46 10,0 C 8,9 C 90 % 1005,1 hPa 0,0 l/m 0 min 0 min 0,0 UV-I 0 W/m 0,0 km/h (0 Bft)
22.04.2014 01:48 10,0 C 8,9 C 90 % 1005,1 hPa 0,0 l/m 0 min 0 min 0,0 UV-I 0 W/m 0,0 km/h (0 Bft)
22.04.2014 01:50 10,0 C 8,9 C 91 % 1005,2 hPa 0,0 l/m 0 min 0 min 0,0 UV-I 0 W/m 0,0 km/h (0 Bft)
22.04.2014 01:52 9,9 C 8,3 C 90 % 1005,2 hPa 0,0 l/m 0 min 0 min 0,0 UV-I 0 W/m 0,0 km/h (0 Bft)
22.04.2014 01:54 9,9 C 8,3 C 90 % 1005,2 hPa 0,0 l/m 0 min 0 min 0,0 UV-I 0 W/m 0,0 km/h (0 Bft)
22.04.2014 01:56 9,9 C 8,3 C 91 % 1005,3 hPa 0,0 l/m 0 min 0 min 0,0 UV-I 0 W/m 0,0 km/h (0 Bft)
22.04.2014 01:58 9,8 C 8,3 C 91 % 1005,4 hPa 0,0 l/m 0 min 0 min 0,0 UV-I 0 W/m 0,0 km/h (0 Bft)
22.04.2014 02:00 9,8 C 8,3 C 91 % 1005,4 hPa 0,0 l/m 0 min 0 min 0,0 UV-I 0 W/m 0,0 km/h (0 Bft)
22.04.2014 02:02 9,8 C 8,3 C 91 % 1005,3 hPa 0,0 l/m 0 min 0 min 0,0 UV-I 0 W/m 0,0 km/h (0 Bft)
22.04.2014 02:06 9,7 C 8,3 C 91 % 1005,4 hPa 0,0 l/m 0 min 0 min 0,0 UV-I 0 W/m 0,0 km/h (0 Bft)
22.04.2014 02:08 9,7 C 7,8 C 91 % 1005,4 hPa 0,0 l/m 0 min 0 min 0,0 UV-I 0 W/m 0,0 km/h (0 Bft)
22.04.2014 02:10 9,6 C 7,8 C 91 % 1005,3 hPa 0,0 l/m 0 min 0 min 0,0 UV-I 0 W/m 0,0 km/h (0 Bft)
22.04.2014 02:12 9,6 C 7,8 C 91 % 1005,4 hPa 0,0 l/m 0 min 0 min 0,0 UV-I 0 W/m 0,0 km/h (0 Bft)
22.04.2014 02:14 9,5 C 7,8 C 91 % 1005,4 hPa 0,0 l/m 0 min 0 min 0,0 UV-I 0 W/m 0,0 km/h (0 Bft)
22.04.2014 02:16 9,4 C 7,8 C 92 % 1005,4 hPa 0,0 l/m 0 min 0 min 0,0 UV-I 0 W/m 0,0 km/h (0 Bft)
22.04.2014 02:18 9,4 C 7,8 C 92 % 1005,4 hPa 0,0 l/m 0 min 0 min 0,0 UV-I 0 W/m 0,0 km/h (0 Bft)
22.04.2014 02:20 9,3 C 7,8 C 92 % 1005,4 hPa 0,0 l/m 0 min 0 min 0,0 UV-I 0 W/m 0,0 km/h (0 Bft)
22.04.2014 02:22 9,3 C 7,8 C 92 % 1005,4 hPa 0,0 l/m 0 min 0 min 0,0 UV-I 0 W/m 0,0 km/h (0 Bft)
22.04.2014 02:24 9,2 C 7,2 C 92 % 1005,5 hPa 0,0 l/m 0 min 0 min 0,0 UV-I 0 W/m 0,0 km/h (0 Bft)
22.04.2014 02:26 9,1 C 7,2 C 92 % 1005,5 hPa 0,0 l/m 0 min 0 min 0,0 UV-I 0 W/m 0,0 km/h (0 Bft)
22.04.2014 02:28 9,1 C 7,2 C 92 % 1005,5 hPa 0,0 l/m 0 min 0 min 0,0 UV-I 0 W/m 0,0 km/h (0 Bft)
22.04.2014 02:30 9,0 C 7,2 C 92 % 1005,5 hPa 0,0 l/m 0 min 0 min 0,0 UV-I 0 W/m 0,0 km/h (0 Bft)
22.04.2014 02:32 9,0 C 7,2 C 92 % 1005,5 hPa 0,0 l/m 0 min 0 min 0,0 UV-I 0 W/m 0,0 km/h (0 Bft)
22.04.2014 02:34 8,9 C 7,2 C 93 % 1005,5 hPa 0,0 l/m 0 min 0 min 0,0 UV-I 0 W/m 0,0 km/h (0 Bft)
22.04.2014 02:36 8,9 C 7,2 C 93 % 1005,6 hPa 0,0 l/m 0 min 0 min 0,0 UV-I 0 W/m 0,0 km/h (0 Bft)
22.04.2014 02:38 8,8 C 7,2 C 93 % 1005,6 hPa 0,0 l/m 0 min 0 min 0,0 UV-I 0 W/m 0,0 km/h (0 Bft)
22.04.2014 02:40 8,8 C 7,2 C 93 % 1005,5 hPa 0,0 l/m 0 min 0 min 0,0 UV-I 0 W/m 0,0 km/h (0 Bft)
22.04.2014 02:42 8,7 C 6,7 C 93 % 1005,6 hPa 0,0 l/m 0 min 0 min 0,0 UV-I 0 W/m 0,0 km/h (0 Bft)
22.04.2014 02:44 8,7 C 6,7 C 93 % 1005,6 hPa 0,0 l/m 0 min 0 min 0,0 UV-I 0 W/m 0,0 km/h (0 Bft)
22.04.2014 02:46 8,7 C 6,7 C 93 % 1005,6 hPa 0,0 l/m 0 min 0 min 0,0 UV-I 0 W/m 0,0 km/h (0 Bft)
22.04.2014 02:48 8,7 C 6,7 C 93 % 1005,6 hPa 0,0 l/m 0 min 0 min 0,0 UV-I 0 W/m 0,0 km/h (0 Bft)
22.04.2014 02:50 8,7 C 6,7 C 93 % 1005,6 hPa 0,0 l/m 0 min 0 min 0,0 UV-I 0 W/m 0,0 km/h (0 Bft)
22.04.2014 02:52 8,7 C 6,7 C 93 % 1005,6 hPa 0,0 l/m 0 min 0 min 0,0 UV-I 0 W/m 0,0 km/h (0 Bft)
22.04.2014 02:54 8,6 C 6,7 C 93 % 1005,6 hPa 0,0 l/m 0 min 0 min 0,0 UV-I 0 W/m 0,0 km/h (0 Bft)
22.04.2014 02:56 8,6 C 6,7 C 93 % 1005,6 hPa 0,0 l/m 0 min 0 min 0,0 UV-I 0 W/m 0,0 km/h (0 Bft)
22.04.2014 02:58 8,6 C 6,7 C 94 % 1005,6 hPa 0,0 l/m 0 min 0 min 0,0 UV-I 0 W/m 0,0 km/h (0 Bft)
22.04.2014 03:00 8,5 C 6,7 C 94 % 1005,6 hPa 0,0 l/m 0 min 0 min 0,0 UV-I 0 W/m 0,0 km/h (0 Bft)
22.04.2014 03:02 8,5 C 6,7 C 94 % 1005,6 hPa 0,0 l/m 0 min 0 min 0,0 UV-I 0 W/m 0,0 km/h (0 Bft)
22.04.2014 03:06 8,5 C 6,7 C 94 % 1005,6 hPa 0,0 l/m 0 min 0 min 0,0 UV-I 0 W/m 0,0 km/h (0 Bft)
22.04.2014 03:08 8,5 C 6,7 C 94 % 1005,7 hPa 0,0 l/m 0 min 0 min 0,0 UV-I 0 W/m 0,0 km/h (0 Bft)
22.04.2014 03:10 8,4 C 6,7 C 94 % 1005,7 hPa 0,0 l/m 0 min 0 min 0,0 UV-I 0 W/m 0,0 km/h (0 Bft)
22.04.2014 03:12 8,4 C 6,7 C 94 % 1005,7 hPa 0,0 l/m 0 min 0 min 0,0 UV-I 0 W/m 0,0 km/h (0 Bft)
22.04.2014 03:14 8,4 C 6,7 C 94 % 1005,6 hPa 0,0 l/m 0 min 0 min 0,0 UV-I 0 W/m 0,0 km/h (0 Bft)
22.04.2014 03:16 8,3 C 6,7 C 94 % 1005,6 hPa 0,0 l/m 0 min 0 min 0,0 UV-I 0 W/m 0,0 km/h (0 Bft)
22.04.2014 03:18 8,3 C 6,7 C 94 % 1005,7 hPa 0,0 l/m 0 min 0 min 0,0 UV-I 0 W/m 0,0 km/h (0 Bft)
22.04.2014 03:20 8,2 C 6,7 C 94 % 1005,7 hPa 0,0 l/m 0 min 0 min 0,0 UV-I 0 W/m 0,0 km/h (0 Bft)
22.04.2014 03:22 8,3 C 6,7 C 94 % 1005,7 hPa 0,0 l/m 0 min 0 min 0,0 UV-I 0 W/m 0,0 km/h (0 Bft)
22.04.2014 03:24 8,3 C 6,7 C 94 % 1005,7 hPa 0,0 l/m 0 min 0 min 0,0 UV-I 0 W/m 0,0 km/h (0 Bft)
22.04.2014 03:26 8,3 C 6,7 C 95 % 1005,7 hPa 0,0 l/m 0 min 0 min 0,0 UV-I 0 W/m 0,0 km/h (0 Bft)
22.04.2014 03:28 8,4 C 6,7 C 95 % 1005,7 hPa 0,0 l/m 0 min 0 min 0,0 UV-I 0 W/m 0,0 km/h (0 Bft)
22.04.2014 03:30 8,4 C 6,7 C 95 % 1005,7 hPa 0,0 l/m 0 min 0 min 0,0 UV-I 0 W/m 0,0 km/h (0 Bft)
22.04.2014 03:32 8,5 C 6,7 C 95 % 1005,7 hPa 0,0 l/m 0 min 0 min 0,0 UV-I 0 W/m 0,0 km/h (0 Bft)
22.04.2014 03:34 8,6 C 6,7 C 95 % 1005,7 hPa 0,0 l/m 0 min 0 min 0,0 UV-I 0 W/m 0,0 km/h (0 Bft)
22.04.2014 03:36 8,6 C 6,7 C 95 % 1005,7 hPa 0,0 l/m 0 min 0 min 0,0 UV-I 0 W/m 0,0 km/h (0 Bft)
22.04.2014 03:38 8,6 C 6,7 C 95 % 1005,7 hPa 0,0 l/m 0 min 0 min 0,0 UV-I 0 W/m 0,0 km/h (0 Bft)
22.04.2014 03:40 8,6 C 6,7 C 95 % 1005,6 hPa 0,0 l/m 0 min 0 min 0,0 UV-I 0 W/m 0,0 km/h (0 Bft)
22.04.2014 03:42 8,6 C 6,7 C 95 % 1005,7 hPa 0,0 l/m 0 min 0 min 0,0 UV-I 0 W/m 0,0 km/h (0 Bft)
22.04.2014 03:44 8,6 C 6,7 C 95 % 1005,7 hPa 0,0 l/m 0 min 0 min 0,0 UV-I 0 W/m 0,0 km/h (0 Bft)
22.04.2014 03:46 8,6 C 6,7 C 95 % 1005,7 hPa 0,0 l/m 0 min 0 min 0,0 UV-I 0 W/m 0,0 km/h (0 Bft)
22.04.2014 03:48 8,6 C 6,7 C 95 % 1005,7 hPa 0,0 l/m 0 min 0 min 0,0 UV-I 0 W/m 0,0 km/h (0 Bft)
22.04.2014 03:50 8,6 C 6,7 C 95 % 1005,7 hPa 0,0 l/m 0 min 0 min 0,0 UV-I 0 W/m 0,0 km/h (0 Bft)
22.04.2014 03:52 8,6 C 6,7 C 95 % 1005,7 hPa 0,0 l/m 0 min 0 min 0,0 UV-I 0 W/m 0,0 km/h (0 Bft)
22.04.2014 03:54 8,6 C 6,7 C 95 % 1005,7 hPa 0,0 l/m 0 min 0 min 0,0 UV-I 0 W/m 0,0 km/h (0 Bft)
22.04.2014 03:56 8,6 C 6,7 C 95 % 1005,6 hPa 0,0 l/m 0 min 0 min 0,0 UV-I 0 W/m 0,0 km/h (0 Bft)
22.04.2014 03:58 8,6 C 6,7 C 95 % 1005,7 hPa 0,0 l/m 0 min 0 min 0,0 UV-I 0 W/m 0,0 km/h (0 Bft)
22.04.2014 04:00 8,7 C 6,7 C 95 % 1005,7 hPa 0,0 l/m 0 min 0 min 0,0 UV-I 0 W/m 0,0 km/h (0 Bft)
22.04.2014 04:02 8,7 C 6,7 C 95 % 1005,7 hPa 0,0 l/m 0 min 0 min 0,0 UV-I 0 W/m 0,0 km/h (0 Bft)
22.04.2014 04:06 8,6 C 6,7 C 95 % 1005,9 hPa 0,0 l/m 0 min 0 min 0,0 UV-I 0 W/m 0,0 km/h (0 Bft)
22.04.2014 04:08 8,6 C 6,7 C 95 % 1005,9 hPa 0,0 l/m 0 min 0 min 0,0 UV-I 0 W/m 0,0 km/h (0 Bft)
22.04.2014 04:10 8,6 C 6,7 C 95 % 1006,0 hPa 0,0 l/m 0 min 0 min 0,0 UV-I 0 W/m 0,0 km/h (0 Bft)
22.04.2014 04:12 8,6 C 6,7 C 95 % 1006,0 hPa 0,0 l/m 0 min 0 min 0,0 UV-I 0 W/m 0,0 km/h (0 Bft)
22.04.2014 04:14 8,6 C 6,7 C 96 % 1006,0 hPa 0,0 l/m 0 min 0 min 0,0 UV-I 0 W/m 0,0 km/h (0 Bft)
22.04.2014 04:16 8,6 C 6,7 C 96 % 1006,0 hPa 0,0 l/m 0 min 0 min 0,0 UV-I 0 W/m 0,0 km/h (0 Bft)
22.04.2014 04:18 8,6 C 6,7 C 96 % 1005,9 hPa 0,0 l/m 0 min 0 min 0,0 UV-I 0 W/m 0,0 km/h (0 Bft)
22.04.2014 04:20 8,6 C 6,7 C 96 % 1006,0 hPa 0,0 l/m 0 min 0 min 0,0 UV-I 0 W/m 0,0 km/h (0 Bft)
22.04.2014 04:22 8,5 C 6,7 C 96 % 1006,0 hPa 0,0 l/m 0 min 0 min 0,0 UV-I 0 W/m 0,0 km/h (0 Bft)
22.04.2014 04:24 8,5 C 6,7 C 96 % 1006,0 hPa 0,0 l/m 0 min 0 min 0,0 UV-I 0 W/m 0,0 km/h (0 Bft)
22.04.2014 04:26 8,5 C 6,7 C 96 % 1006,1 hPa 0,0 l/m 0 min 0 min 0,0 UV-I 0 W/m 0,0 km/h (0 Bft)
22.04.2014 04:28 8,5 C 6,7 C 96 % 1006,1 hPa 0,0 l/m 0 min 0 min 0,0 UV-I 0 W/m 0,0 km/h (0 Bft)
22.04.2014 04:30 8,6 C 6,7 C 96 % 1006,1 hPa 0,0 l/m 0 min 0 min 0,0 UV-I 0 W/m 0,0 km/h (0 Bft)
22.04.2014 04:32 8,5 C 6,7 C 96 % 1006,2 hPa 0,0 l/m 0 min 0 min 0,0 UV-I 0 W/m 0,0 km/h (0 Bft)
22.04.2014 04:34 8,5 C 6,7 C 96 % 1006,2 hPa 0,0 l/m 0 min 0 min 0,0 UV-I 0 W/m 0,0 km/h (0 Bft)
22.04.2014 04:36 8,5 C 6,7 C 96 % 1006,2 hPa 0,0 l/m 0 min 0 min 0,0 UV-I 0 W/m 0,0 km/h (0 Bft)
22.04.2014 04:38 8,4 C 7,2 C 96 % 1006,2 hPa 0,0 l/m 0 min 0 min 0,0 UV-I 0 W/m 0,0 km/h (0 Bft)
22.04.2014 04:40 8,5 C 7,2 C 96 % 1006,2 hPa 0,0 l/m 0 min 0 min 0,0 UV-I 0 W/m 0,0 km/h (0 Bft)
22.04.2014 04:42 8,5 C 7,2 C 96 % 1006,3 hPa 0,0 l/m 0 min 0 min 0,0 UV-I 0 W/m 0,0 km/h (0 Bft)
22.04.2014 04:44 8,5 C 7,2 C 96 % 1006,3 hPa 0,0 l/m 0 min 0 min 0,0 UV-I 0 W/m 0,0 km/h (0 Bft)
22.04.2014 04:46 8,5 C 7,2 C 96 % 1006,3 hPa 0,0 l/m 0 min 0 min 0,0 UV-I 0 W/m 0,0 km/h (0 Bft)
22.04.2014 04:48 8,5 C 7,2 C 96 % 1006,3 hPa 0,0 l/m 0 min 0 min 0,0 UV-I 0 W/m 0,0 km/h (0 Bft)
22.04.2014 04:50 8,5 C 7,2 C 96 % 1006,3 hPa 0,0 l/m 0 min 0 min 0,0 UV-I 0 W/m 0,0 km/h (0 Bft)
22.04.2014 04:52 8,5 C 7,2 C 96 % 1006,3 hPa 0,0 l/m 0 min 0 min 0,0 UV-I 0 W/m 0,0 km/h (0 Bft)
22.04.2014 04:54 8,6 C 7,2 C 96 % 1006,3 hPa 0,0 l/m 0 min 0 min 0,0 UV-I 0 W/m 0,0 km/h (0 Bft)
22.04.2014 04:56 8,6 C 7,2 C 96 % 1006,3 hPa 0,0 l/m 0 min 0 min 0,0 UV-I 0 W/m 0,0 km/h (0 Bft)
22.04.2014 04:58 8,6 C 7,2 C 96 % 1006,3 hPa 0,0 l/m 0 min 0 min 0,0 UV-I 0 W/m 0,0 km/h (0 Bft)
22.04.2014 05:00 8,7 C 7,2 C 96 % 1006,3 hPa 0,0 l/m 0 min 0 min 0,0 UV-I 0 W/m 0,0 km/h (0 Bft)
22.04.2014 05:02 8,7 C 7,2 C 96 % 1006,3 hPa 0,0 l/m 0 min 0 min 0,0 UV-I 0 W/m 0,0 km/h (0 Bft)
22.04.2014 05:06 8,7 C 7,8 C 96 % 1006,3 hPa 0,0 l/m 0 min 0 min 0,0 UV-I 0 W/m 0,0 km/h (0 Bft)
22.04.2014 05:08 8,8 C 7,8 C 96 % 1006,3 hPa 0,0 l/m 0 min 0 min 0,0 UV-I 0 W/m 0,0 km/h (0 Bft)
22.04.2014 05:10 8,8 C 7,8 C 96 % 1006,4 hPa 0,0 l/m 0 min 0 min 0,0 UV-I 0 W/m 2,6 km/h (1 Bft)
22.04.2014 05:12 8,8 C 7,8 C 96 % 1006,3 hPa 0,0 l/m 0 min 0 min 0,0 UV-I 0 W/m 10,3 km/h (2 Bft)
22.04.2014 05:14 8,9 C 7,8 C 96 % 1006,4 hPa 0,0 l/m 0 min 0 min 0,0 UV-I 0 W/m 7,7 km/h (2 Bft)
22.04.2014 05:16 8,9 C 7,8 C 96 % 1006,5 hPa 0,0 l/m 0 min 0 min 0,0 UV-I 0 W/m 7,7 km/h (2 Bft)
22.04.2014 05:18 8,9 C 7,8 C 96 % 1006,5 hPa 0,0 l/m 0 min 0 min 0,0 UV-I 0 W/m 0,0 km/h (0 Bft)
22.04.2014 05:20 8,9 C 7,8 C 96 % 1006,5 hPa 0,0 l/m 0 min 0 min 0,0 UV-I 0 W/m 5,1 km/h (1 Bft)
22.04.2014 05:22 8,8 C 7,8 C 96 % 1006,5 hPa 0,0 l/m 0 min 0 min 0,0 UV-I 0 W/m 0,0 km/h (0 Bft)
22.04.2014 05:24 8,8 C 7,8 C 96 % 1006,6 hPa 0,0 l/m 0 min 0 min 0,0 UV-I 0 W/m 0,0 km/h (0 Bft)
22.04.2014 05:26 8,8 C 7,8 C 96 % 1006,6 hPa 0,0 l/m 0 min 0 min 0,0 UV-I 0 W/m 0,0 km/h (0 Bft)
22.04.2014 05:28 8,8 C 7,8 C 96 % 1006,6 hPa 0,0 l/m 0 min 0 min 0,0 UV-I 0 W/m 0,0 km/h (0 Bft)
22.04.2014 05:30 8,8 C 7,8 C 96 % 1006,7 hPa 0,0 l/m 0 min 0 min 0,0 UV-I 0 W/m 2,6 km/h (1 Bft)
22.04.2014 05:32 8,8 C 7,8 C 96 % 1006,7 hPa 0,0 l/m 0 min 0 min 0,0 UV-I 0 W/m 0,0 km/h (0 Bft)
22.04.2014 05:34 8,8 C 7,8 C 96 % 1006,6 hPa 0,0 l/m 0 min 0 min 0,0 UV-I 0 W/m 0,0 km/h (0 Bft)
22.04.2014 05:36 8,9 C 7,8 C 96 % 1006,6 hPa 0,0 l/m 0 min 0 min 0,0 UV-I 0 W/m 2,6 km/h (1 Bft)
22.04.2014 05:38 8,9 C 7,8 C 96 % 1006,6 hPa 0,0 l/m 0 min 0 min 0,0 UV-I 0 W/m 0,0 km/h (0 Bft)
22.04.2014 05:40 8,9 C 7,8 C 96 % 1006,6 hPa 0,0 l/m 0 min 0 min 0,0 UV-I 0 W/m 7,7 km/h (2 Bft)
22.04.2014 05:42 8,9 C 7,8 C 96 % 1006,6 hPa 0,0 l/m 0 min 0 min 0,0 UV-I 0 W/m 7,7 km/h (2 Bft)
22.04.2014 05:44 8,8 C 7,8 C 96 % 1006,6 hPa 0,0 l/m 0 min 0 min 0,0 UV-I 0 W/m 0,0 km/h (0 Bft)
22.04.2014 05:46 8,8 C 7,8 C 96 % 1006,7 hPa 0,0 l/m 0 min 0 min 0,0 UV-I 0 W/m 0,0 km/h (0 Bft)
22.04.2014 05:48 8,8 C 7,8 C 96 % 1006,6 hPa 0,0 l/m 0 min 0 min 0,0 UV-I 0 W/m 0,0 km/h (0 Bft)
22.04.2014 05:50 8,7 C 7,8 C 96 % 1006,7 hPa 0,0 l/m 0 min 0 min 0,0 UV-I 0 W/m 0,0 km/h (0 Bft)
22.04.2014 05:52 8,7 C 7,8 C 96 % 1006,7 hPa 0,0 l/m 0 min 0 min 0,0 UV-I 0 W/m 0,0 km/h (0 Bft)
22.04.2014 05:54 8,8 C 7,8 C 96 % 1006,6 hPa 0,0 l/m 0 min 0 min 0,0 UV-I 0 W/m 0,0 km/h (0 Bft)
22.04.2014 05:56 8,8 C 7,8 C 96 % 1006,7 hPa 0,0 l/m 0 min 0 min 0,0 UV-I 0 W/m 0,0 km/h (0 Bft)
22.04.2014 05:58 8,8 C 7,8 C 96 % 1006,7 hPa 0,0 l/m 0 min 0 min 0,0 UV-I 0 W/m 0,0 km/h (0 Bft)
22.04.2014 06:00 8,9 C 7,8 C 96 % 1006,7 hPa 0,0 l/m 0 min 0 min 0,0 UV-I 0 W/m 0,0 km/h (0 Bft)
22.04.2014 06:02 8,9 C 7,8 C 96 % 1006,7 hPa 0,0 l/m 0 min 0 min 0,0 UV-I 0 W/m 0,0 km/h (0 Bft)
22.04.2014 06:06 9,0 C 7,8 C 97 % 1006,7 hPa 0,0 l/m 0 min 0 min 0,0 UV-I 0 W/m 0,0 km/h (0 Bft)
22.04.2014 06:08 9,0 C 7,8 C 97 % 1006,7 hPa 0,0 l/m 0 min 0 min 0,0 UV-I 0 W/m 0,0 km/h (0 Bft)
22.04.2014 06:10 9,0 C 7,8 C 97 % 1006,7 hPa 0,0 l/m 0 min 0 min 0,0 UV-I 0 W/m 0,0 km/h (0 Bft)
22.04.2014 06:12 9,0 C 7,8 C 97 % 1006,7 hPa 0,0 l/m 0 min 0 min 0,0 UV-I 0 W/m 0,0 km/h (0 Bft)
22.04.2014 06:14 9,0 C 7,8 C 97 % 1006,8 hPa 0,0 l/m 0 min 0 min 0,0 UV-I 0 W/m 0,0 km/h (0 Bft)
22.04.2014 06:16 9,0 C 7,8 C 97 % 1006,8 hPa 0,0 l/m 0 min 0 min 0,0 UV-I 0 W/m 0,0 km/h (0 Bft)
22.04.2014 06:18 9,0 C 7,8 C 97 % 1006,8 hPa 0,0 l/m 0 min 0 min 0,0 UV-I 0 W/m 0,0 km/h (0 Bft)
22.04.2014 06:20 9,0 C 7,8 C 97 % 1006,8 hPa 0,0 l/m 0 min 0 min 0,0 UV-I 0 W/m 0,0 km/h (0 Bft)
22.04.2014 06:22 9,0 C 7,8 C 97 % 1006,9 hPa 0,0 l/m 0 min 0 min 0,0 UV-I 0 W/m 0,0 km/h (0 Bft)
22.04.2014 06:24 9,0 C 7,8 C 97 % 1006,9 hPa 0,0 l/m 0 min 0 min 0,0 UV-I 0 W/m 0,0 km/h (0 Bft)
22.04.2014 06:26 8,9 C 7,8 C 97 % 1006,9 hPa 0,0 l/m 0 min 0 min 0,0 UV-I 0 W/m 0,0 km/h (0 Bft)
22.04.2014 06:28 9,0 C 7,8 C 97 % 1006,9 hPa 0,0 l/m 0 min 0 min 0,0 UV-I 0 W/m 0,0 km/h (0 Bft)
22.04.2014 06:30 9,0 C 7,8 C 97 % 1006,9 hPa 0,0 l/m 0 min 0 min 0,0 UV-I 5 W/m 0,0 km/h (0 Bft)
22.04.2014 06:32 9,0 C 7,8 C 97 % 1007,0 hPa 0,0 l/m 0 min 0 min 0,0 UV-I 5 W/m 0,0 km/h (0 Bft)
22.04.2014 06:34 9,0 C 7,8 C 97 % 1007,0 hPa 0,0 l/m 0 min 0 min 0,0 UV-I 7 W/m 0,0 km/h (0 Bft)
22.04.2014 06:36 9,0 C 7,8 C 97 % 1007,0 hPa 0,0 l/m 0 min 0 min 0,0 UV-I 7 W/m 0,0 km/h (0 Bft)
22.04.2014 06:38 9,0 C 7,8 C 97 % 1007,0 hPa 0,0 l/m 0 min 0 min 0,0 UV-I 9 W/m 0,0 km/h (0 Bft)
22.04.2014 06:40 9,0 C 7,8 C 97 % 1007,0 hPa 0,0 l/m 0 min 0 min 0,0 UV-I 11 W/m 0,0 km/h (0 Bft)
22.04.2014 06:42 9,1 C 7,8 C 97 % 1007,1 hPa 0,0 l/m 0 min 0 min 0,0 UV-I 11 W/m 0,0 km/h (0 Bft)
22.04.2014 06:44 9,1 C 7,8 C 97 % 1007,1 hPa 0,0 l/m 0 min 0 min 0,0 UV-I 11 W/m 0,0 km/h (0 Bft)
22.04.2014 06:46 9,1 C 7,8 C 97 % 1007,1 hPa 0,0 l/m 0 min 0 min 0,0 UV-I 11 W/m 0,0 km/h (0 Bft)
22.04.2014 06:48 9,0 C 7,8 C 97 % 1007,2 hPa 0,0 l/m 0 min 0 min 0,0 UV-I 12 W/m 0,0 km/h (0 Bft)
22.04.2014 06:50 9,0 C 7,8 C 97 % 1007,2 hPa 0,0 l/m 0 min 0 min 0,0 UV-I 14 W/m 0,0 km/h (0 Bft)
22.04.2014 06:52 9,0 C 7,8 C 97 % 1007,3 hPa 0,0 l/m 0 min 0 min 0,0 UV-I 16 W/m 0,0 km/h (0 Bft)
22.04.2014 06:54 9,0 C 7,8 C 97 % 1007,3 hPa 0,0 l/m 0 min 0 min 0,0 UV-I 18 W/m 0,0 km/h (0 Bft)
22.04.2014 06:56 9,1 C 7,8 C 97 % 1007,5 hPa 0,0 l/m 0 min 0 min 0,0 UV-I 19 W/m 0,0 km/h (0 Bft)
22.04.2014 06:58 9,1 C 7,8 C 97 % 1007,4 hPa 0,0 l/m 0 min 0 min 0,0 UV-I 19 W/m 0,0 km/h (0 Bft)
22.04.2014 07:00 9,1 C 7,8 C 97 % 1007,5 hPa 0,0 l/m 0 min 0 min 0,0 UV-I 19 W/m 0,0 km/h (0 Bft)
22.04.2014 07:02 9,1 C 7,8 C 97 % 1007,5 hPa 0,0 l/m 0 min 0 min 0,0 UV-I 21 W/m 0,0 km/h (0 Bft)
22.04.2014 07:06 9,1 C 7,8 C 97 % 1007,5 hPa 0,0 l/m 0 min 0 min 0,0 UV-I 25 W/m 0,0 km/h (0 Bft)
22.04.2014 07:08 9,1 C 7,8 C 97 % 1007,6 hPa 0,0 l/m 0 min 0 min 0,0 UV-I 26 W/m 0,0 km/h (0 Bft)
22.04.2014 07:10 9,1 C 7,8 C 97 % 1007,6 hPa 0,0 l/m 0 min 0 min 0,0 UV-I 28 W/m 0,0 km/h (0 Bft)
22.04.2014 07:12 9,1 C 7,8 C 97 % 1007,6 hPa 0,0 l/m 0 min 0 min 0,0 UV-I 30 W/m 0,0 km/h (0 Bft)
22.04.2014 07:14 9,1 C 7,8 C 97 % 1007,8 hPa 0,0 l/m 0 min 0 min 0,0 UV-I 32 W/m 0,0 km/h (0 Bft)
22.04.2014 07:16 9,0 C 7,8 C 97 % 1007,7 hPa 0,0 l/m 0 min 0 min 0,0 UV-I 33 W/m 0,0 km/h (0 Bft)
22.04.2014 07:18 9,0 C 7,8 C 97 % 1007,8 hPa 0,0 l/m 0 min 0 min 0,0 UV-I 37 W/m 0,0 km/h (0 Bft)
22.04.2014 07:20 9,1 C 7,8 C 97 % 1007,8 hPa 0,0 l/m 0 min 0 min 0,0 UV-I 39 W/m 0,0 km/h (0 Bft)
22.04.2014 07:22 9,1 C 7,8 C 97 % 1007,9 hPa 0,0 l/m 0 min 0 min 0,0 UV-I 40 W/m 0,0 km/h (0 Bft)
22.04.2014 07:24 9,1 C 7,8 C 97 % 1007,9 hPa 0,0 l/m 0 min 0 min 0,0 UV-I 40 W/m 0,0 km/h (0 Bft)
22.04.2014 07:26 9,1 C 7,8 C 97 % 1007,9 hPa 0,0 l/m 0 min 0 min 0,0 UV-I 40 W/m 0,0 km/h (0 Bft)
22.04.2014 07:28 9,1 C 7,8 C 97 % 1008,0 hPa 0,0 l/m 0 min 0 min 0,0 UV-I 42 W/m 0,0 km/h (0 Bft)
22.04.2014 07:30 9,1 C 7,8 C 97 % 1008,1 hPa 0,0 l/m 0 min 0 min 0,0 UV-I 44 W/m 0,0 km/h (0 Bft)
22.04.2014 07:32 9,1 C 7,8 C 97 % 1008,1 hPa 0,0 l/m 0 min 0 min 0,0 UV-I 44 W/m 0,0 km/h (0 Bft)
22.04.2014 07:34 9,1 C 7,8 C 97 % 1008,1 hPa 0,0 l/m 0 min 0 min 0,0 UV-I 44 W/m 0,0 km/h (0 Bft)
22.04.2014 07:36 9,1 C 7,8 C 97 % 1008,0 hPa 0,0 l/m 0 min 0 min 0,0 UV-I 46 W/m 0,0 km/h (0 Bft)
22.04.2014 07:38 9,1 C 7,8 C 97 % 1008,2 hPa 0,0 l/m 0 min 0 min 0,0 UV-I 47 W/m 0,0 km/h (0 Bft)
22.04.2014 07:40 9,1 C 7,8 C 97 % 1008,2 hPa 0,0 l/m 0 min 0 min 0,0 UV-I 49 W/m 0,0 km/h (0 Bft)
22.04.2014 07:42 9,1 C 7,8 C 97 % 1008,2 hPa 0,0 l/m 0 min 0 min 0,0 UV-I 51 W/m 0,0 km/h (0 Bft)
22.04.2014 07:44 9,2 C 7,8 C 96 % 1008,2 hPa 0,0 l/m 0 min 0 min 0,0 UV-I 53 W/m 0,0 km/h (0 Bft)
22.04.2014 07:46 9,2 C 7,8 C 96 % 1008,2 hPa 0,0 l/m 0 min 0 min 0,0 UV-I 58 W/m 0,0 km/h (0 Bft)
22.04.2014 07:48 9,2 C 7,8 C 96 % 1008,2 hPa 0,0 l/m 0 min 0 min 0,0 UV-I 62 W/m 0,0 km/h (0 Bft)
22.04.2014 07:50 9,3 C 7,8 C 96 % 1008,2 hPa 0,0 l/m 0 min 0 min 0,0 UV-I 67 W/m 0,0 km/h (0 Bft)
22.04.2014 07:52 9,3 C 8,3 C 97 % 1008,2 hPa 0,0 l/m 0 min 0 min 0,0 UV-I 76 W/m 0,0 km/h (0 Bft)
22.04.2014 07:54 9,4 C 8,3 C 97 % 1008,2 hPa 0,0 l/m 0 min 0 min 0,0 UV-I 81 W/m 0,0 km/h (0 Bft)
22.04.2014 07:56 9,5 C 8,3 C 97 % 1008,2 hPa 0,0 l/m 0 min 0 min 0,0 UV-I 86 W/m 0,0 km/h (0 Bft)
22.04.2014 07:58 9,6 C 8,3 C 97 % 1008,2 hPa 0,0 l/m 0 min 0 min 0,0 UV-I 97 W/m 0,0 km/h (0 Bft)
22.04.2014 08:00 9,7 C 8,9 C 97 % 1008,3 hPa 0,0 l/m 0 min 0 min 0,0 UV-I 100 W/m 0,0 km/h (0 Bft)
22.04.2014 08:02 9,8 C 8,9 C 97 % 1008,3 hPa 0,0 l/m 0 min 0 min 0,0 UV-I 104 W/m 0,0 km/h (0 Bft)
22.04.2014 08:06 10,1 C 8,9 C 97 % 1008,4 hPa 0,0 l/m 0 min 0 min 0,0 UV-I 109 W/m 0,0 km/h (0 Bft)
22.04.2014 08:08 10,2 C 9,4 C 96 % 1008,4 hPa 0,0 l/m 0 min 0 min 0,0 UV-I 111 W/m 5,1 km/h (1 Bft)
22.04.2014 08:10 10,3 C 9,4 C 96 % 1008,4 hPa 0,0 l/m 0 min 0 min 0,0 UV-I 113 W/m 5,1 km/h (1 Bft)
22.04.2014 08:12 10,4 C 9,4 C 97 % 1008,4 hPa 0,0 l/m 0 min 0 min 0,0 UV-I 113 W/m 0,0 km/h (0 Bft)
22.04.2014 08:14 10,6 C 9,4 C 96 % 1008,4 hPa 0,0 l/m 0 min 0 min 0,0 UV-I 113 W/m 7,7 km/h (2 Bft)
22.04.2014 08:16 10,7 C 9,4 C 96 % 1008,5 hPa 0,0 l/m 0 min 0 min 0,0 UV-I 114 W/m 7,7 km/h (2 Bft)
22.04.2014 08:18 10,8 C 10,0 C 96 % 1008,5 hPa 0,0 l/m 0 min 0 min 0,0 UV-I 128 W/m 0,0 km/h (0 Bft)
22.04.2014 08:20 10,9 C 10,0 C 96 % 1008,5 hPa 0,0 l/m 2 min 0 min 0,0 UV-I 214 W/m 7,7 km/h (2 Bft)
22.04.2014 08:22 10,9 C 10,0 C 95 % 1008,6 hPa 0,0 l/m 2 min 0 min 0,0 UV-I 221 W/m 10,3 km/h (2 Bft)
22.04.2014 08:24 11,0 C 10,0 C 95 % 1008,5 hPa 0,0 l/m 2 min 0 min 0,0 UV-I 221 W/m 10,3 km/h (2 Bft)
22.04.2014 08:26 11,1 C 10,0 C 94 % 1008,6 hPa 0,0 l/m 2 min 0 min 0,0 UV-I 225 W/m 2,6 km/h (1 Bft)
22.04.2014 08:28 11,2 C 10,0 C 94 % 1008,7 hPa 0,0 l/m 2 min 0 min 0,0 UV-I 232 W/m 0,0 km/h (0 Bft)
22.04.2014 08:30 11,3 C 10,0 C 94 % 1008,6 hPa 0,0 l/m 2 min 0 min 0,0 UV-I 234 W/m 0,0 km/h (0 Bft)
22.04.2014 08:32 11,3 C 10,6 C 93 % 1008,6 hPa 0,0 l/m 2 min 0 min 0,0 UV-I 236 W/m 0,0 km/h (0 Bft)
22.04.2014 08:34 11,4 C 10,6 C 93 % 1008,6 hPa 0,0 l/m 2 min 0 min 0,0 UV-I 236 W/m 7,7 km/h (2 Bft)
22.04.2014 08:36 11,5 C 10,6 C 93 % 1008,7 hPa 0,0 l/m 2 min 0 min 0,0 UV-I 243 W/m 10,3 km/h (2 Bft)
22.04.2014 08:38 11,6 C 10,6 C 92 % 1008,7 hPa 0,0 l/m 2 min 0 min 0,0 UV-I 243 W/m 12,9 km/h (3 Bft)
22.04.2014 08:40 11,6 C 10,6 C 92 % 1008,8 hPa 0,0 l/m 2 min 0 min 0,0 UV-I 253 W/m 0,0 km/h (0 Bft)
22.04.2014 08:42 11,7 C 10,6 C 92 % 1008,8 hPa 0,0 l/m 2 min 0 min 0,0 UV-I 258 W/m 2,6 km/h (1 Bft)
22.04.2014 08:44 11,7 C 10,6 C 91 % 1008,8 hPa 0,0 l/m 2 min 0 min 0,0 UV-I 264 W/m 0,0 km/h (0 Bft)
22.04.2014 08:46 11,8 C 10,6 C 91 % 1008,9 hPa 0,0 l/m 2 min 0 min 0,0 UV-I 269 W/m 0,0 km/h (0 Bft)
22.04.2014 08:48 11,9 C 10,6 C 91 % 1008,9 hPa 0,0 l/m 2 min 0 min 0,0 UV-I 265 W/m 0,0 km/h (0 Bft)
22.04.2014 08:50 11,9 C 10,6 C 91 % 1008,9 hPa 0,0 l/m 2 min 0 min 0,0 UV-I 262 W/m 5,1 km/h (1 Bft)
22.04.2014 08:52 12,0 C 10,6 C 90 % 1008,9 hPa 0,0 l/m 2 min 0 min 0,0 UV-I 271 W/m 0,0 km/h (0 Bft)
22.04.2014 08:54 12,0 C 10,6 C 89 % 1008,9 hPa 0,0 l/m 2 min 0 min 0,0 UV-I 272 W/m 10,3 km/h (2 Bft)
22.04.2014 08:56 12,1 C 10,6 C 89 % 1008,9 hPa 0,0 l/m 2 min 0 min 0,0 UV-I 287 W/m 7,7 km/h (2 Bft)
22.04.2014 08:58 12,1 C 10,6 C 89 % 1009,0 hPa 0,0 l/m 2 min 0 min 0,0 UV-I 290 W/m 2,6 km/h (1 Bft)
22.04.2014 09:00 12,2 C 11,1 C 88 % 1009,0 hPa 0,0 l/m 2 min 0 min 0,0 UV-I 292 W/m 2,6 km/h (1 Bft)
22.04.2014 09:02 12,2 C 11,1 C 88 % 1009,0 hPa 0,0 l/m 2 min 0 min 0,0 UV-I 301 W/m 7,7 km/h (2 Bft)
22.04.2014 09:06 12,4 C 11,1 C 88 % 1009,1 hPa 0,0 l/m 2 min 0 min 0,0 UV-I 311 W/m 5,1 km/h (1 Bft)
22.04.2014 09:08 12,4 C 11,1 C 87 % 1009,1 hPa 0,0 l/m 2 min 0 min 0,0 UV-I 320 W/m 7,7 km/h (2 Bft)
22.04.2014 09:10 12,5 C 11,1 C 87 % 1009,1 hPa 0,0 l/m 2 min 0 min 0,0 UV-I 332 W/m 0,0 km/h (0 Bft)
22.04.2014 09:12 12,7 C 11,1 C 87 % 1009,1 hPa 0,0 l/m 2 min 0 min 0,0 UV-I 323 W/m 7,7 km/h (2 Bft)
22.04.2014 09:14 12,7 C 11,1 C 86 % 1009,1 hPa 0,0 l/m 2 min 0 min 0,0 UV-I 362 W/m 12,9 km/h (3 Bft)
22.04.2014 09:16 12,8 C 11,7 C 86 % 1009,2 hPa 0,0 l/m 2 min 0 min 0,0 UV-I 366 W/m 7,7 km/h (2 Bft)
22.04.2014 09:18 12,8 C 11,7 C 85 % 1009,2 hPa 0,0 l/m 2 min 0 min 0,0 UV-I 373 W/m 2,6 km/h (1 Bft)
22.04.2014 09:20 12,9 C 11,7 C 84 % 1009,1 hPa 0,0 l/m 2 min 0 min 0,0 UV-I 381 W/m 2,6 km/h (1 Bft)
22.04.2014 09:22 12,9 C 11,7 C 83 % 1009,1 hPa 0,0 l/m 2 min 0 min 0,0 UV-I 380 W/m 0,0 km/h (0 Bft)
22.04.2014 09:24 13,1 C 11,7 C 83 % 1009,2 hPa 0,0 l/m 2 min 0 min 0,0 UV-I 371 W/m 0,0 km/h (0 Bft)
22.04.2014 09:26 13,2 C 11,7 C 82 % 1009,2 hPa 0,0 l/m 2 min 0 min 0,0 UV-I 309 W/m 7,7 km/h (2 Bft)
22.04.2014 09:28 13,2 C 11,7 C 80 % 1009,2 hPa 0,0 l/m 0 min 0 min 0,0 UV-I 144 W/m 0,0 km/h (0 Bft)
22.04.2014 09:30 13,1 C 11,7 C 80 % 1009,2 hPa 0,0 l/m 0 min 0 min 0,0 UV-I 151 W/m 0,0 km/h (0 Bft)
22.04.2014 09:32 12,9 C 11,7 C 80 % 1009,2 hPa 0,0 l/m 0 min 0 min 0,0 UV-I 250 W/m 2,6 km/h (1 Bft)
22.04.2014 09:34 12,9 C 11,7 C 80 % 1009,3 hPa 0,0 l/m 2 min 0 min 0,0 UV-I 287 W/m 2,6 km/h (1 Bft)
22.04.2014 09:36 12,9 C 11,7 C 81 % 1009,3 hPa 0,0 l/m 2 min 0 min 0,0 UV-I 274 W/m 0,0 km/h (0 Bft)
22.04.2014 09:38 12,9 C 12,2 C 81 % 1009,3 hPa 0,0 l/m 2 min 0 min 0,0 UV-I 294 W/m 7,7 km/h (2 Bft)
22.04.2014 09:40 13,0 C 12,8 C 80 % 1009,4 hPa 0,0 l/m 2 min 0 min 0,0 UV-I 297 W/m 10,3 km/h (2 Bft)
22.04.2014 09:42 13,0 C 13,3 C 79 % 1009,4 hPa 0,0 l/m 2 min 0 min 0,0 UV-I 306 W/m 0,0 km/h (0 Bft)
22.04.2014 09:44 13,1 C 13,9 C 80 % 1009,5 hPa 0,0 l/m 2 min 0 min 0,0 UV-I 401 W/m 0,0 km/h (0 Bft)
22.04.2014 09:46 13,2 C 14,4 C 80 % 1009,5 hPa 0,0 l/m 2 min 0 min 0,0 UV-I 417 W/m 2,6 km/h (1 Bft)
22.04.2014 09:48 13,3 C 14,4 C 79 % 1009,5 hPa 0,0 l/m 2 min 0 min 0,0 UV-I 294 W/m 5,1 km/h (1 Bft)
22.04.2014 09:50 13,4 C 13,9 C 79 % 1009,5 hPa 0,0 l/m 2 min 0 min 0,0 UV-I 297 W/m 12,9 km/h (3 Bft)
22.04.2014 09:52 13,4 C 13,9 C 79 % 1009,6 hPa 0,0 l/m 2 min 0 min 0,0 UV-I 315 W/m 18,0 km/h (3 Bft)
22.04.2014 09:54 13,5 C 13,9 C 78 % 1009,6 hPa 0,0 l/m 0 min 0 min 0,0 UV-I 251 W/m 5,1 km/h (1 Bft)
22.04.2014 09:56 13,4 C 13,3 C 78 % 1009,7 hPa 0,0 l/m 0 min 0 min 0,0 UV-I 234 W/m 2,6 km/h (1 Bft)
22.04.2014 09:58 13,4 C 13,3 C 79 % 1009,7 hPa 0,0 l/m 0 min 0 min 0,0 UV-I 223 W/m 2,6 km/h (1 Bft)
22.04.2014 10:00 13,4 C 13,3 C 79 % 1009,7 hPa 0,0 l/m 0 min 0 min 0,0 UV-I 218 W/m 2,6 km/h (1 Bft)
22.04.2014 10:02 13,4 C 12,8 C 78 % 1009,8 hPa 0,0 l/m 0 min 0 min 0,0 UV-I 236 W/m 10,3 km/h (2 Bft)
22.04.2014 10:06 13,4 C 13,3 C 77 % 1009,9 hPa 0,0 l/m 0 min 0 min 0,0 UV-I 255 W/m 12,9 km/h (3 Bft)
22.04.2014 10:08 13,4 C 13,3 C 77 % 1009,9 hPa 0,0 l/m 0 min 0 min 0,0 UV-I 271 W/m 10,3 km/h (2 Bft)
22.04.2014 10:10 13,5 C 13,3 C 76 % 1009,8 hPa 0,0 l/m 0 min 0 min 0,0 UV-I 297 W/m 2,6 km/h (1 Bft)
22.04.2014 10:12 13,6 C 13,3 C 77 % 1009,9 hPa 0,0 l/m 2 min 0 min 0,0 UV-I 320 W/m 5,1 km/h (1 Bft)
22.04.2014 10:14 13,7 C 13,9 C 77 % 1009,9 hPa 0,0 l/m 2 min 0 min 0,5 UV-I 325 W/m 2,6 km/h (1 Bft)
22.04.2014 10:16 13,8 C 13,9 C 77 % 1009,9 hPa 0,0 l/m 2 min 0 min 0,5 UV-I 322 W/m 5,1 km/h (1 Bft)
22.04.2014 10:18 13,9 C 13,9 C 77 % 1009,9 hPa 0,0 l/m 2 min 0 min 0,5 UV-I 313 W/m 5,1 km/h (1 Bft)
22.04.2014 10:20 14,0 C 13,9 C 76 % 1009,9 hPa 0,0 l/m 0 min 0 min 0,5 UV-I 311 W/m 2,6 km/h (1 Bft)
22.04.2014 10:22 14,1 C 13,9 C 76 % 1009,9 hPa 0,0 l/m 2 min 0 min 0,6 UV-I 327 W/m 2,6 km/h (1 Bft)
22.04.2014 10:24 14,2 C 13,9 C 76 % 1009,9 hPa 0,0 l/m 2 min 0 min 0,6 UV-I 406 W/m 0,0 km/h (0 Bft)
22.04.2014 10:26 14,2 C 14,4 C 76 % 1010,0 hPa 0,0 l/m 2 min 0 min 0,8 UV-I 482 W/m 10,3 km/h (2 Bft)
22.04.2014 10:28 14,2 C 14,4 C 77 % 1010,0 hPa 0,0 l/m 2 min 0 min 0,8 UV-I 446 W/m 0,0 km/h (0 Bft)
22.04.2014 10:30 14,2 C 14,4 C 75 % 1010,0 hPa 0,0 l/m 2 min 0 min 0,8 UV-I 376 W/m 5,1 km/h (1 Bft)
22.04.2014 10:32 14,3 C 15,0 C 75 % 1010,0 hPa 0,0 l/m 2 min 0 min 0,7 UV-I 345 W/m 5,1 km/h (1 Bft)
22.04.2014 10:34 14,4 C 15,0 C 77 % 1010,1 hPa 0,0 l/m 0 min 0 min 0,6 UV-I 299 W/m 5,1 km/h (1 Bft)
22.04.2014 10:36 14,4 C 15,0 C 76 % 1010,1 hPa 0,0 l/m 0 min 0 min 0,6 UV-I 262 W/m 0,0 km/h (0 Bft)
22.04.2014 10:38 14,4 C 14,4 C 76 % 1010,3 hPa 0,0 l/m 0 min 0 min 0,5 UV-I 251 W/m 5,1 km/h (1 Bft)
22.04.2014 10:40 14,2 C 14,4 C 75 % 1010,2 hPa 0,0 l/m 0 min 0 min 0,5 UV-I 239 W/m 0,0 km/h (0 Bft)
22.04.2014 10:42 14,2 C 14,4 C 75 % 1010,2 hPa 0,0 l/m 0 min 0 min 0,5 UV-I 225 W/m 5,1 km/h (1 Bft)
22.04.2014 10:44 14,2 C 14,4 C 76 % 1010,3 hPa 0,0 l/m 0 min 0 min 0,5 UV-I 227 W/m 10,3 km/h (2 Bft)
22.04.2014 10:46 14,2 C 13,9 C 74 % 1010,4 hPa 0,0 l/m 0 min 0 min 0,5 UV-I 232 W/m 7,7 km/h (2 Bft)
22.04.2014 10:48 14,2 C 14,4 C 75 % 1010,4 hPa 0,0 l/m 0 min 0 min 0,5 UV-I 243 W/m 0,0 km/h (0 Bft)
22.04.2014 10:50 14,2 C 14,4 C 76 % 1010,4 hPa 0,0 l/m 0 min 0 min 0,5 UV-I 251 W/m 0,0 km/h (0 Bft)
22.04.2014 10:52 14,2 C 14,4 C 75 % 1010,4 hPa 0,0 l/m 0 min 0 min 0,6 UV-I 260 W/m 0,0 km/h (0 Bft)
22.04.2014 10:54 14,2 C 14,4 C 75 % 1010,5 hPa 0,0 l/m 0 min 0 min 0,6 UV-I 278 W/m 0,0 km/h (0 Bft)
22.04.2014 10:56 14,2 C 14,4 C 75 % 1010,5 hPa 0,0 l/m 0 min 0 min 0,6 UV-I 290 W/m 0,0 km/h (0 Bft)
22.04.2014 10:58 14,3 C 14,4 C 74 % 1010,5 hPa 0,0 l/m 0 min 0 min 0,7 UV-I 302 W/m 0,0 km/h (0 Bft)
22.04.2014 11:00 14,4 C 15,0 C 75 % 1010,5 hPa 0,0 l/m 0 min 0 min 0,8 UV-I 330 W/m 0,0 km/h (0 Bft)
22.04.2014 11:02 14,6 C 15,0 C 76 % 1010,5 hPa 0,0 l/m 0 min 0 min 0,8 UV-I 346 W/m 7,7 km/h (2 Bft)
22.04.2014 11:06 14,6 C 15,0 C 73 % 1010,5 hPa 0,0 l/m 2 min 0 min 1,0 UV-I 380 W/m 10,3 km/h (2 Bft)
22.04.2014 11:08 14,4 C 15,0 C 73 % 1010,5 hPa 0,0 l/m 2 min 0 min 1,0 UV-I 380 W/m 7,7 km/h (2 Bft)
22.04.2014 11:10 14,6 C 15,0 C 74 % 1010,5 hPa 0,0 l/m 2 min 0 min 1,0 UV-I 387 W/m 10,3 km/h (2 Bft)
22.04.2014 11:12 14,6 C 15,6 C 73 % 1010,5 hPa 0,0 l/m 2 min 0 min 1,1 UV-I 388 W/m 2,6 km/h (1 Bft)
22.04.2014 11:14 14,8 C 15,6 C 74 % 1010,5 hPa 0,0 l/m 2 min 0 min 1,1 UV-I 383 W/m 5,1 km/h (1 Bft)
22.04.2014 11:16 14,9 C 15,6 C 73 % 1010,6 hPa 0,0 l/m 2 min 0 min 1,1 UV-I 392 W/m 0,0 km/h (0 Bft)
22.04.2014 11:18 15,1 C 16,1 C 73 % 1010,6 hPa 0,0 l/m 2 min 0 min 1,3 UV-I 466 W/m 0,0 km/h (0 Bft)
22.04.2014 11:20 15,2 C 16,1 C 73 % 1010,6 hPa 0,0 l/m 2 min 0 min 1,6 UV-I 492 W/m 7,7 km/h (2 Bft)
22.04.2014 11:22 15,4 C 16,7 C 72 % 1010,7 hPa 0,0 l/m 2 min 0 min 1,6 UV-I 492 W/m 5,1 km/h (1 Bft)
22.04.2014 11:24 15,5 C 16,1 C 70 % 1010,7 hPa 0,0 l/m 2 min 0 min 1,7 UV-I 584 W/m 5,1 km/h (1 Bft)
22.04.2014 11:26 15,4 C 16,1 C 69 % 1010,7 hPa 0,0 l/m 2 min 0 min 1,8 UV-I 520 W/m 10,3 km/h (2 Bft)
22.04.2014 11:28 15,4 C 16,7 C 69 % 1010,8 hPa 0,0 l/m 2 min 0 min 1,7 UV-I 585 W/m 7,7 km/h (2 Bft)
22.04.2014 11:30 15,5 C 16,7 C 70 % 1010,7 hPa 0,0 l/m 2 min 0 min 1,8 UV-I 550 W/m 2,6 km/h (1 Bft)
22.04.2014 11:32 15,6 C 16,7 C 69 % 1010,8 hPa 0,0 l/m 2 min 0 min 1,7 UV-I 571 W/m 5,1 km/h (1 Bft)
22.04.2014 11:34 15,8 C 16,7 C 70 % 1010,7 hPa 0,0 l/m 2 min 0 min 1,8 UV-I 635 W/m 7,7 km/h (2 Bft)
22.04.2014 11:36 15,9 C 16,7 C 69 % 1010,7 hPa 0,0 l/m 2 min 0 min 1,5 UV-I 635 W/m 7,7 km/h (2 Bft)
22.04.2014 11:38 15,8 C 16,7 C 69 % 1010,8 hPa 0,0 l/m 2 min 0 min 1,7 UV-I 635 W/m 0,0 km/h (0 Bft)
22.04.2014 11:40 16,0 C 16,7 C 70 % 1010,8 hPa 0,0 l/m 2 min 0 min 1,9 UV-I 659 W/m 0,0 km/h (0 Bft)
22.04.2014 11:42 16,2 C 17,2 C 69 % 1010,8 hPa 0,0 l/m 2 min 0 min 1,9 UV-I 599 W/m 5,1 km/h (1 Bft)
22.04.2014 11:44 16,3 C 17,2 C 67 % 1010,8 hPa 0,0 l/m 2 min 0 min 1,7 UV-I 670 W/m 2,6 km/h (1 Bft)
22.04.2014 11:46 16,3 C 16,7 C 66 % 1010,9 hPa 0,0 l/m 2 min 0 min 1,6 UV-I 499 W/m 18,0 km/h (3 Bft)
22.04.2014 11:48 16,1 C 16,7 C 66 % 1010,8 hPa 0,0 l/m 0 min 0 min 1,4 UV-I 373 W/m 7,7 km/h (2 Bft)
22.04.2014 11:50 15,9 C 16,7 C 68 % 1010,9 hPa 0,0 l/m 2 min 0 min 1,5 UV-I 422 W/m 0,0 km/h (0 Bft)
22.04.2014 11:52 15,9 C 16,7 C 69 % 1010,9 hPa 0,0 l/m 2 min 0 min 1,6 UV-I 492 W/m 2,6 km/h (1 Bft)
22.04.2014 11:54 16,0 C 17,2 C 70 % 1010,9 hPa 0,0 l/m 2 min 0 min 1,4 UV-I 408 W/m 0,0 km/h (0 Bft)
22.04.2014 11:56 16,1 C 16,7 C 67 % 1010,9 hPa 0,0 l/m 0 min 0 min 1,3 UV-I 381 W/m 10,3 km/h (2 Bft)
22.04.2014 11:58 16,2 C 16,7 C 68 % 1010,9 hPa 0,0 l/m 0 min 0 min 1,4 UV-I 388 W/m 10,3 km/h (2 Bft)
22.04.2014 12:00 16,0 C 16,7 C 66 % 1011,0 hPa 0,0 l/m 0 min 0 min 1,4 UV-I 396 W/m 7,7 km/h (2 Bft)
22.04.2014 12:02 15,9 C 16,7 C 68 % 1011,0 hPa 0,0 l/m 2 min 0 min 1,4 UV-I 403 W/m 5,1 km/h (1 Bft)
22.04.2014 12:06 15,9 C 16,7 C 67 % 1011,0 hPa 0,0 l/m 2 min 0 min 1,5 UV-I 455 W/m 10,3 km/h (2 Bft)
22.04.2014 12:08 15,9 C 17,2 C 68 % 1011,0 hPa 0,0 l/m 2 min 0 min 1,6 UV-I 424 W/m 5,1 km/h (1 Bft)
22.04.2014 12:10 16,0 C 17,2 C 69 % 1011,0 hPa 0,0 l/m 2 min 0 min 1,6 UV-I 448 W/m 0,0 km/h (0 Bft)
22.04.2014 12:12 16,2 C 17,8 C 68 % 1011,0 hPa 0,0 l/m 2 min 0 min 1,9 UV-I 592 W/m 2,6 km/h (1 Bft)
22.04.2014 12:14 16,6 C 17,8 C 68 % 1011,0 hPa 0,0 l/m 2 min 0 min 2,3 UV-I 645 W/m 2,6 km/h (1 Bft)
22.04.2014 12:16 16,7 C 18,3 C 67 % 1011,0 hPa 0,0 l/m 2 min 0 min 2,5 UV-I 707 W/m 0,0 km/h (0 Bft)
22.04.2014 12:18 16,9 C 18,3 C 68 % 1011,1 hPa 0,0 l/m 2 min 0 min 2,2 UV-I 710 W/m 5,1 km/h (1 Bft)
22.04.2014 12:20 16,9 C 18,3 C 65 % 1011,0 hPa 0,0 l/m 2 min 0 min 2,2 UV-I 631 W/m 18,0 km/h (3 Bft)
22.04.2014 12:22 16,9 C 18,3 C 65 % 1011,1 hPa 0,0 l/m 2 min 0 min 2,4 UV-I 721 W/m 0,0 km/h (0 Bft)
22.04.2014 12:24 17,1 C 18,3 C 65 % 1011,1 hPa 0,0 l/m 2 min 0 min 2,4 UV-I 675 W/m 0,0 km/h (0 Bft)
22.04.2014 12:26 17,1 C 18,9 C 65 % 1011,1 hPa 0,0 l/m 2 min 0 min 2,4 UV-I 612 W/m 0,0 km/h (0 Bft)
22.04.2014 12:28 17,1 C 18,9 C 63 % 1011,1 hPa 0,0 l/m 2 min 0 min 2,5 UV-I 749 W/m 7,7 km/h (2 Bft)
22.04.2014 12:30 17,1 C 18,9 C 66 % 1011,1 hPa 0,0 l/m 2 min 0 min 2,6 UV-I 731 W/m 7,7 km/h (2 Bft)
22.04.2014 12:32 17,3 C 18,9 C 65 % 1011,1 hPa 0,0 l/m 2 min 0 min 2,6 UV-I 733 W/m 7,7 km/h (2 Bft)
22.04.2014 12:34 17,5 C 18,9 C 66 % 1011,1 hPa 0,0 l/m 2 min 0 min 2,7 UV-I 745 W/m 0,0 km/h (0 Bft)
22.04.2014 12:36 17,5 C 18,9 C 66 % 1011,1 hPa 0,0 l/m 2 min 0 min 2,6 UV-I 705 W/m 2,6 km/h (1 Bft)
22.04.2014 12:38 17,4 C 18,9 C 65 % 1011,0 hPa 0,0 l/m 2 min 0 min 2,7 UV-I 613 W/m 10,3 km/h (2 Bft)
22.04.2014 12:40 17,7 C 19,4 C 67 % 1011,1 hPa 0,0 l/m 2 min 0 min 2,6 UV-I 761 W/m 5,1 km/h (1 Bft)
22.04.2014 12:42 17,8 C 19,4 C 65 % 1011,0 hPa 0,0 l/m 2 min 0 min 2,7 UV-I 722 W/m 7,7 km/h (2 Bft)
22.04.2014 12:44 18,0 C 19,4 C 65 % 1011,1 hPa 0,0 l/m 2 min 0 min 2,3 UV-I 717 W/m 5,1 km/h (1 Bft)
22.04.2014 12:46 18,1 C 18,9 C 62 % 1011,1 hPa 0,0 l/m 2 min 0 min 2,2 UV-I 649 W/m 10,3 km/h (2 Bft)
22.04.2014 12:48 18,0 C 18,9 C 60 % 1011,1 hPa 0,0 l/m 0 min 0 min 1,5 UV-I 327 W/m 10,3 km/h (2 Bft)
22.04.2014 12:50 17,6 C 18,3 C 60 % 1011,1 hPa 0,0 l/m 0 min 0 min 1,4 UV-I 327 W/m 2,6 km/h (1 Bft)
22.04.2014 12:52 17,2 C 17,8 C 64 % 1011,1 hPa 0,0 l/m 0 min 0 min 1,5 UV-I 360 W/m 5,1 km/h (1 Bft)
22.04.2014 12:54 17,0 C 17,8 C 63 % 1011,1 hPa 0,0 l/m 0 min 0 min 1,5 UV-I 374 W/m 0,0 km/h (0 Bft)
22.04.2014 12:56 16,9 C 17,8 C 63 % 1011,1 hPa 0,0 l/m 0 min 0 min 1,4 UV-I 343 W/m 0,0 km/h (0 Bft)
22.04.2014 12:58 17,0 C 17,8 C 65 % 1011,1 hPa 0,0 l/m 0 min 0 min 1,4 UV-I 348 W/m 7,7 km/h (2 Bft)
22.04.2014 13:00 16,9 C 17,8 C 62 % 1011,1 hPa 0,0 l/m 0 min 0 min 1,5 UV-I 366 W/m 18,0 km/h (3 Bft)
22.04.2014 13:02 16,9 C 17,8 C 62 % 1011,1 hPa 0,0 l/m 0 min 0 min 1,6 UV-I 392 W/m 12,9 km/h (3 Bft)
22.04.2014 13:06 17,1 C 18,3 C 61 % 1011,1 hPa 0,0 l/m 2 min 0 min 1,7 UV-I 443 W/m 7,7 km/h (2 Bft)
22.04.2014 13:08 17,1 C 18,3 C 60 % 1011,1 hPa 0,0 l/m 2 min 0 min 1,7 UV-I 443 W/m 7,7 km/h (2 Bft)
22.04.2014 13:10 17,2 C 18,3 C 60 % 1011,1 hPa 0,0 l/m 2 min 0 min 1,6 UV-I 431 W/m 7,7 km/h (2 Bft)
22.04.2014 13:12 17,2 C 18,3 C 60 % 1011,1 hPa 0,0 l/m 0 min 0 min 1,5 UV-I 390 W/m 7,7 km/h (2 Bft)
22.04.2014 13:14 17,1 C 18,3 C 60 % 1011,1 hPa 0,0 l/m 0 min 0 min 1,5 UV-I 381 W/m 10,3 km/h (2 Bft)
22.04.2014 13:16 17,1 C 17,8 C 59 % 1011,2 hPa 0,0 l/m 0 min 0 min 1,5 UV-I 396 W/m 7,7 km/h (2 Bft)
22.04.2014 13:18 17,1 C 17,8 C 61 % 1011,2 hPa 0,0 l/m 0 min 0 min 1,5 UV-I 410 W/m 10,3 km/h (2 Bft)
22.04.2014 13:20 17,1 C 18,3 C 59 % 1011,2 hPa 0,0 l/m 2 min 0 min 1,5 UV-I 427 W/m 0,0 km/h (0 Bft)
22.04.2014 13:22 17,1 C 18,3 C 59 % 1011,1 hPa 0,0 l/m 0 min 0 min 1,5 UV-I 420 W/m 0,0 km/h (0 Bft)
22.04.2014 13:24 17,1 C 18,3 C 60 % 1011,1 hPa 0,0 l/m 0 min 0 min 1,5 UV-I 396 W/m 10,3 km/h (2 Bft)
22.04.2014 13:26 17,2 C 18,3 C 62 % 1011,1 hPa 0,0 l/m 0 min 0 min 1,5 UV-I 394 W/m 2,6 km/h (1 Bft)
22.04.2014 13:28 17,1 C 18,3 C 61 % 1011,1 hPa 0,0 l/m 0 min 0 min 1,5 UV-I 404 W/m 10,3 km/h (2 Bft)
22.04.2014 13:30 17,1 C 18,3 C 62 % 1011,2 hPa 0,0 l/m 0 min 0 min 1,5 UV-I 411 W/m 10,3 km/h (2 Bft)
22.04.2014 13:32 17,2 C 18,3 C 62 % 1011,2 hPa 0,0 l/m 0 min 0 min 1,5 UV-I 424 W/m 18,0 km/h (3 Bft)
22.04.2014 13:34 17,1 C 18,3 C 60 % 1011,2 hPa 0,0 l/m 0 min 0 min 1,5 UV-I 413 W/m 18,0 km/h (3 Bft)
22.04.2014 13:36 17,1 C 17,8 C 61 % 1011,3 hPa 0,0 l/m 0 min 0 min 1,5 UV-I 403 W/m 5,1 km/h (1 Bft)
22.04.2014 13:38 17,0 C 18,3 C 62 % 1011,3 hPa 0,0 l/m 0 min 0 min 1,5 UV-I 422 W/m 5,1 km/h (1 Bft)
22.04.2014 13:40 17,1 C 18,3 C 63 % 1011,2 hPa 0,0 l/m 2 min 0 min 1,6 UV-I 445 W/m 2,6 km/h (1 Bft)
22.04.2014 13:42 17,2 C 18,3 C 61 % 1011,3 hPa 0,0 l/m 2 min 0 min 1,8 UV-I 485 W/m 15,4 km/h (3 Bft)
22.04.2014 13:44 17,2 C 18,3 C 61 % 1011,3 hPa 0,0 l/m 2 min 0 min 1,8 UV-I 487 W/m 12,9 km/h (3 Bft)
22.04.2014 13:46 17,3 C 18,9 C 62 % 1011,3 hPa 0,0 l/m 2 min 0 min 1,8 UV-I 478 W/m 2,6 km/h (1 Bft)
22.04.2014 13:48 17,3 C 18,9 C 60 % 1011,3 hPa 0,0 l/m 2 min 0 min 1,9 UV-I 483 W/m 18,0 km/h (3 Bft)
22.04.2014 13:50 17,3 C 18,3 C 61 % 1011,3 hPa 0,0 l/m 2 min 0 min 2,0 UV-I 547 W/m 12,9 km/h (3 Bft)
22.04.2014 13:52 17,2 C 18,3 C 61 % 1011,4 hPa 0,0 l/m 2 min 0 min 2,0 UV-I 543 W/m 12,9 km/h (3 Bft)
22.04.2014 13:54 17,3 C 18,9 C 62 % 1011,4 hPa 0,0 l/m 2 min 0 min 2,2 UV-I 691 W/m 10,3 km/h (2 Bft)
22.04.2014 13:56 17,5 C 19,4 C 62 % 1011,4 hPa 0,0 l/m 2 min 0 min 2,7 UV-I 768 W/m 7,7 km/h (2 Bft)
22.04.2014 13:58 17,7 C 19,4 C 61 % 1011,4 hPa 0,0 l/m 2 min 0 min 3,1 UV-I 837 W/m 18,0 km/h (3 Bft)
22.04.2014 14:00 17,7 C 20,0 C 59 % 1011,5 hPa 0,0 l/m 2 min 0 min 3,1 UV-I 932 W/m 10,3 km/h (2 Bft)
22.04.2014 14:02 17,7 C 20,0 C 61 % 1011,4 hPa 0,0 l/m 2 min 0 min 2,9 UV-I 884 W/m 12,9 km/h (3 Bft)
22.04.2014 14:06 18,2 C 20,0 C 62 % 1011,4 hPa 0,0 l/m 2 min 0 min 3,1 UV-I 926 W/m 10,3 km/h (2 Bft)
22.04.2014 14:08 18,6 C 20,6 C 60 % 1011,4 hPa 0,0 l/m 2 min 0 min 3,1 UV-I 812 W/m 12,9 km/h (3 Bft)
22.04.2014 14:10 18,6 C 20,6 C 58 % 1011,4 hPa 0,0 l/m 2 min 0 min 2,6 UV-I 812 W/m 10,3 km/h (2 Bft)
22.04.2014 14:12 18,6 C 20,0 C 61 % 1011,4 hPa 0,0 l/m 2 min 0 min 3,0 UV-I 812 W/m 15,4 km/h (3 Bft)
22.04.2014 14:14 18,9 C 20,6 C 59 % 1011,4 hPa 0,0 l/m 2 min 0 min 2,8 UV-I 940 W/m 15,4 km/h (3 Bft)
22.04.2014 14:16 19,1 C 20,6 C 60 % 1011,5 hPa 0,0 l/m 2 min 0 min 2,9 UV-I 777 W/m 2,6 km/h (1 Bft)
22.04.2014 14:18 19,0 C 20,6 C 58 % 1011,5 hPa 0,0 l/m 2 min 0 min 3,2 UV-I 935 W/m 7,7 km/h (2 Bft)
22.04.2014 14:20 18,9 C 20,0 C 58 % 1011,5 hPa 0,0 l/m 2 min 0 min 2,6 UV-I 765 W/m 7,7 km/h (2 Bft)
22.04.2014 14:22 18,7 C 20,0 C 58 % 1011,5 hPa 0,0 l/m 2 min 0 min 2,3 UV-I 540 W/m 10,3 km/h (2 Bft)
22.04.2014 14:24 18,5 C 19,4 C 57 % 1011,5 hPa 0,0 l/m 2 min 0 min 2,6 UV-I 654 W/m 18,0 km/h (3 Bft)
22.04.2014 14:26 18,3 C 19,4 C 57 % 1011,6 hPa 0,0 l/m 2 min 0 min 2,2 UV-I 700 W/m 7,7 km/h (2 Bft)
22.04.2014 14:28 18,2 C 18,9 C 58 % 1011,6 hPa 0,0 l/m 2 min 0 min 2,5 UV-I 541 W/m 10,3 km/h (2 Bft)
22.04.2014 14:30 18,2 C 19,4 C 60 % 1011,6 hPa 0,0 l/m 2 min 0 min 2,3 UV-I 526 W/m 2,6 km/h (1 Bft)
22.04.2014 14:32 18,2 C 19,4 C 59 % 1011,7 hPa 0,0 l/m 2 min 0 min 2,7 UV-I 624 W/m 2,6 km/h (1 Bft)
22.04.2014 14:34 18,3 C 19,4 C 58 % 1011,7 hPa 0,0 l/m 2 min 0 min 2,4 UV-I 624 W/m 5,1 km/h (1 Bft)
22.04.2014 14:36 18,1 C 18,9 C 57 % 1011,7 hPa 0,0 l/m 2 min 0 min 2,1 UV-I 459 W/m 18,0 km/h (3 Bft)
22.04.2014 14:38 17,8 C 18,9 C 57 % 1011,8 hPa 0,0 l/m 2 min 0 min 2,3 UV-I 473 W/m 10,3 km/h (2 Bft)
22.04.2014 14:40 17,9 C 18,9 C 59 % 1011,8 hPa 0,0 l/m 2 min 0 min 2,1 UV-I 485 W/m 0,0 km/h (0 Bft)
22.04.2014 14:42 18,0 C 19,4 C 59 % 1011,9 hPa 0,0 l/m 2 min 0 min 2,2 UV-I 527 W/m 2,6 km/h (1 Bft)
22.04.2014 14:44 17,9 C 18,9 C 57 % 1011,8 hPa 0,0 l/m 2 min 0 min 2,7 UV-I 587 W/m 12,9 km/h (3 Bft)
22.04.2014 14:46 17,9 C 19,4 C 57 % 1011,8 hPa 0,0 l/m 2 min 0 min 2,4 UV-I 587 W/m 2,6 km/h (1 Bft)
22.04.2014 14:48 17,9 C 19,4 C 58 % 1011,8 hPa 0,0 l/m 2 min 0 min 2,5 UV-I 710 W/m 12,9 km/h (3 Bft)
22.04.2014 14:50 18,1 C 19,4 C 58 % 1011,9 hPa 0,0 l/m 2 min 0 min 3,3 UV-I 805 W/m 15,4 km/h (3 Bft)
22.04.2014 14:52 18,2 C 20,0 C 59 % 1011,8 hPa 0,0 l/m 2 min 0 min 3,2 UV-I 972 W/m 0,0 km/h (0 Bft)
22.04.2014 14:54 18,5 C 20,0 C 57 % 1011,9 hPa 0,0 l/m 2 min 0 min 2,1 UV-I 452 W/m 10,3 km/h (2 Bft)
22.04.2014 14:56 18,3 C 19,4 C 56 % 1011,8 hPa 0,0 l/m 2 min 0 min 2,2 UV-I 606 W/m 10,3 km/h (2 Bft)
22.04.2014 14:58 18,4 C 19,4 C 58 % 1011,8 hPa 0,0 l/m 2 min 0 min 2,4 UV-I 563 W/m 2,6 km/h (1 Bft)
22.04.2014 15:00 18,6 C 20,0 C 58 % 1011,8 hPa 0,0 l/m 2 min 0 min 2,3 UV-I 642 W/m 7,7 km/h (2 Bft)
22.04.2014 15:02 18,7 C 20,0 C 57 % 1011,9 hPa 0,0 l/m 2 min 0 min 2,0 UV-I 446 W/m 10,3 km/h (2 Bft)
22.04.2014 15:06 18,1 C 19,4 C 56 % 1011,9 hPa 0,0 l/m 2 min 0 min 2,2 UV-I 566 W/m 10,3 km/h (2 Bft)
22.04.2014 15:08 18,1 C 19,4 C 56 % 1011,8 hPa 0,0 l/m 2 min 0 min 2,0 UV-I 475 W/m 10,3 km/h (2 Bft)
22.04.2014 15:10 18,2 C 19,4 C 59 % 1011,8 hPa 0,0 l/m 2 min 0 min 2,2 UV-I 561 W/m 10,3 km/h (2 Bft)
22.04.2014 15:12 18,5 C 20,0 C 57 % 1011,8 hPa 0,0 l/m 2 min 0 min 3,0 UV-I 747 W/m 10,3 km/h (2 Bft)
22.04.2014 15:14 18,9 C 20,6 C 59 % 1011,8 hPa 0,0 l/m 2 min 0 min 3,0 UV-I 759 W/m 7,7 km/h (2 Bft)
22.04.2014 15:16 19,2 C 20,6 C 57 % 1011,7 hPa 0,0 l/m 2 min 0 min 2,2 UV-I 708 W/m 2,6 km/h (1 Bft)
22.04.2014 15:18 19,2 C 20,6 C 56 % 1011,8 hPa 0,0 l/m 2 min 0 min 2,7 UV-I 520 W/m 5,1 km/h (1 Bft)
22.04.2014 15:20 19,1 C 20,0 C 55 % 1011,8 hPa 0,0 l/m 2 min 0 min 2,5 UV-I 742 W/m 2,6 km/h (1 Bft)
22.04.2014 15:22 19,2 C 20,0 C 56 % 1011,9 hPa 0,0 l/m 2 min 0 min 2,2 UV-I 747 W/m 5,1 km/h (1 Bft)
22.04.2014 15:24 19,2 C 19,4 C 53 % 1012,0 hPa 0,0 l/m 0 min 0 min 1,7 UV-I 373 W/m 12,9 km/h (3 Bft)
22.04.2014 15:26 18,9 C 19,4 C 54 % 1011,9 hPa 0,0 l/m 2 min 0 min 2,7 UV-I 464 W/m 12,9 km/h (3 Bft)
22.04.2014 15:28 18,9 C 18,9 C 54 % 1011,8 hPa 0,0 l/m 2 min 0 min 2,7 UV-I 464 W/m 15,4 km/h (3 Bft)
22.04.2014 15:30 19,0 C 19,4 C 55 % 1011,9 hPa 0,0 l/m 2 min 0 min 2,7 UV-I 796 W/m 5,1 km/h (1 Bft)
22.04.2014 15:32 19,3 C 19,4 C 54 % 1011,8 hPa 0,0 l/m 2 min 0 min 2,6 UV-I 731 W/m 2,6 km/h (1 Bft)
22.04.2014 15:34 19,3 C 19,4 C 52 % 1011,9 hPa 0,0 l/m 2 min 0 min 2,8 UV-I 838 W/m 15,4 km/h (3 Bft)
22.04.2014 15:36 19,2 C 19,4 C 52 % 1011,9 hPa 0,0 l/m 2 min 0 min 2,3 UV-I 812 W/m 15,4 km/h (3 Bft)
22.04.2014 15:38 19,3 C 19,4 C 54 % 1011,9 hPa 0,0 l/m 2 min 0 min 2,2 UV-I 812 W/m 18,0 km/h (3 Bft)
22.04.2014 15:40 19,3 C 19,4 C 53 % 1011,9 hPa 0,0 l/m 2 min 0 min 1,6 UV-I 812 W/m 10,3 km/h (2 Bft)
22.04.2014 15:42 19,1 C 19,4 C 53 % 1012,0 hPa 0,0 l/m 0 min 0 min 1,5 UV-I 366 W/m 5,1 km/h (1 Bft)
22.04.2014 15:44 18,8 C 18,9 C 53 % 1011,9 hPa 0,0 l/m 2 min 0 min 1,5 UV-I 383 W/m 0,0 km/h (0 Bft)
22.04.2014 15:46 18,7 C 18,9 C 56 % 1011,9 hPa 0,0 l/m 0 min 0 min 1,3 UV-I 316 W/m 7,7 km/h (2 Bft)
22.04.2014 15:48 18,6 C 18,9 C 54 % 1011,9 hPa 0,0 l/m 0 min 0 min 1,4 UV-I 336 W/m 7,7 km/h (2 Bft)
22.04.2014 15:50 18,6 C 18,9 C 53 % 1012,0 hPa 0,0 l/m 0 min 0 min 2,5 UV-I 336 W/m 7,7 km/h (2 Bft)
22.04.2014 15:52 18,7 C 18,9 C 54 % 1012,0 hPa 0,0 l/m 0 min 0 min 1,6 UV-I 336 W/m 15,4 km/h (3 Bft)
22.04.2014 15:54 18,7 C 18,9 C 54 % 1012,1 hPa 0,0 l/m 2 min 0 min 1,8 UV-I 517 W/m 18,0 km/h (3 Bft)
22.04.2014 15:56 18,6 C 19,4 C 55 % 1012,1 hPa 0,0 l/m 2 min 0 min 1,6 UV-I 475 W/m 0,0 km/h (0 Bft)
22.04.2014 15:58 18,5 C 18,9 C 55 % 1012,1 hPa 0,0 l/m 2 min 0 min 1,5 UV-I 490 W/m 0,0 km/h (0 Bft)
22.04.2014 16:00 18,6 C 19,4 C 56 % 1012,2 hPa 0,0 l/m 2 min 0 min 1,8 UV-I 490 W/m 10,3 km/h (2 Bft)
22.04.2014 16:02 18,6 C 19,4 C 56 % 1012,2 hPa 0,0 l/m 2 min 0 min 1,7 UV-I 533 W/m 12,9 km/h (3 Bft)
22.04.2014 16:06 18,6 C 19,4 C 55 % 1012,1 hPa 0,0 l/m 2 min 0 min 2,1 UV-I 710 W/m 7,7 km/h (2 Bft)
22.04.2014 16:08 18,5 C 18,9 C 55 % 1012,0 hPa 0,0 l/m 2 min 0 min 2,0 UV-I 668 W/m 2,6 km/h (1 Bft)
22.04.2014 16:10 18,3 C 18,3 C 55 % 1012,1 hPa 0,0 l/m 2 min 0 min 2,0 UV-I 640 W/m 10,3 km/h (2 Bft)
22.04.2014 16:12 18,1 C 18,3 C 55 % 1012,0 hPa 0,0 l/m 2 min 0 min 2,0 UV-I 622 W/m 10,3 km/h (2 Bft)
22.04.2014 16:14 17,9 C 17,8 C 56 % 1012,1 hPa 0,0 l/m 2 min 0 min 1,9 UV-I 621 W/m 10,3 km/h (2 Bft)
22.04.2014 16:16 17,9 C 17,8 C 56 % 1012,0 hPa 0,0 l/m 2 min 0 min 1,9 UV-I 615 W/m 0,0 km/h (0 Bft)
22.04.2014 16:18 18,4 C 18,3 C 59 % 1012,0 hPa 0,0 l/m 2 min 0 min 1,8 UV-I 605 W/m 2,6 km/h (1 Bft)
22.04.2014 16:20 18,8 C 18,3 C 58 % 1011,9 hPa 0,0 l/m 2 min 0 min 1,8 UV-I 605 W/m 10,3 km/h (2 Bft)
22.04.2014 16:22 18,9 C 18,9 C 56 % 1012,0 hPa 0,0 l/m 2 min 0 min 1,8 UV-I 592 W/m 0,0 km/h (0 Bft)
22.04.2014 16:24 19,1 C 18,9 C 56 % 1012,0 hPa 0,0 l/m 2 min 0 min 1,8 UV-I 603 W/m 18,0 km/h (3 Bft)
22.04.2014 16:26 19,2 C 18,9 C 56 % 1012,0 hPa 0,0 l/m 2 min 0 min 1,7 UV-I 578 W/m 7,7 km/h (2 Bft)
22.04.2014 16:28 19,4 C 18,9 C 55 % 1012,0 hPa 0,0 l/m 2 min 0 min 1,7 UV-I 580 W/m 10,3 km/h (2 Bft)
22.04.2014 16:30 19,3 C 18,9 C 54 % 1011,9 hPa 0,0 l/m 2 min 0 min 1,7 UV-I 575 W/m 10,3 km/h (2 Bft)
22.04.2014 16:32 19,4 C 19,4 C 56 % 1012,0 hPa 0,0 l/m 2 min 0 min 1,7 UV-I 584 W/m 10,3 km/h (2 Bft)
22.04.2014 16:34 19,5 C 20,6 C 54 % 1012,0 hPa 0,0 l/m 2 min 0 min 1,6 UV-I 571 W/m 10,3 km/h (2 Bft)
22.04.2014 16:36 19,4 C 20,6 C 53 % 1012,1 hPa 0,0 l/m 2 min 0 min 1,5 UV-I 540 W/m 2,6 km/h (1 Bft)
22.04.2014 16:38 18,9 C 20,0 C 54 % 1012,0 hPa 0,0 l/m 2 min 0 min 1,5 UV-I 536 W/m 10,3 km/h (2 Bft)
22.04.2014 16:40 18,9 C 20,6 C 56 % 1011,9 hPa 0,0 l/m 2 min 0 min 1,5 UV-I 517 W/m 2,6 km/h (1 Bft)
22.04.2014 16:42 19,2 C 20,6 C 55 % 1012,0 hPa 0,0 l/m 2 min 0 min 1,4 UV-I 513 W/m 7,7 km/h (2 Bft)
22.04.2014 16:44 19,2 C 20,0 C 53 % 1011,9 hPa 0,0 l/m 2 min 0 min 1,4 UV-I 512 W/m 2,6 km/h (1 Bft)
22.04.2014 16:46 19,2 C 19,4 C 55 % 1011,9 hPa 0,0 l/m 2 min 0 min 1,3 UV-I 489 W/m 0,0 km/h (0 Bft)
22.04.2014 16:48 19,3 C 19,4 C 55 % 1011,8 hPa 0,0 l/m 2 min 0 min 1,3 UV-I 492 W/m 10,3 km/h (2 Bft)
22.04.2014 16:50 19,4 C 18,9 C 55 % 1012,0 hPa 0,0 l/m 2 min 0 min 1,3 UV-I 483 W/m 2,6 km/h (1 Bft)
22.04.2014 16:52 19,3 C 18,9 C 53 % 1011,9 hPa 0,0 l/m 2 min 0 min 1,3 UV-I 480 W/m 2,6 km/h (1 Bft)
22.04.2014 16:54 18,9 C 18,9 C 54 % 1012,0 hPa 0,0 l/m 2 min 0 min 1,3 UV-I 476 W/m 2,6 km/h (1 Bft)
22.04.2014 16:56 18,9 C 17,8 C 55 % 1011,9 hPa 0,0 l/m 2 min 0 min 1,2 UV-I 410 W/m 10,3 km/h (2 Bft)
22.04.2014 16:58 18,9 C 15,0 C 54 % 1011,8 hPa 0,0 l/m 2 min 0 min 1,2 UV-I 454 W/m 7,7 km/h (2 Bft)
22.04.2014 17:00 18,9 C 13,9 C 57 % 1011,9 hPa 0,0 l/m 2 min 0 min 1,2 UV-I 464 W/m 2,6 km/h (1 Bft)
22.04.2014 17:02 18,8 C 13,3 C 56 % 1011,9 hPa 0,0 l/m 2 min 0 min 1,2 UV-I 494 W/m 2,6 km/h (1 Bft)
22.04.2014 17:06 18,9 C 13,3 C 55 % 1012,0 hPa 0,0 l/m 2 min 0 min 0,8 UV-I 494 W/m 2,6 km/h (1 Bft)
22.04.2014 17:08 18,8 C 12,2 C 54 % 1011,9 hPa 0,0 l/m 0 min 0 min 0,7 UV-I 105 W/m 10,3 km/h (2 Bft)
22.04.2014 17:10 18,5 C 12,2 C 55 % 1011,9 hPa 0,0 l/m 0 min 0 min 0,6 UV-I 95 W/m 10,3 km/h (2 Bft)
22.04.2014 17:12 18,3 C 12,2 C 57 % 1012,0 hPa 0,0 l/m 0 min 0 min 0,6 UV-I 98 W/m 2,6 km/h (1 Bft)
22.04.2014 17:14 18,1 C 12,2 C 57 % 1012,0 hPa 0,0 l/m 0 min 0 min 0,5 UV-I 105 W/m 0,0 km/h (0 Bft)
22.04.2014 17:16 17,9 C 12,2 C 56 % 1012,0 hPa 0,0 l/m 0 min 0 min 0,0 UV-I 111 W/m 0,0 km/h (0 Bft)
22.04.2014 17:18 17,8 C 12,2 C 57 % 1011,9 hPa 0,0 l/m 0 min 0 min 0,0 UV-I 116 W/m 0,0 km/h (0 Bft)
22.04.2014 17:20 17,8 C 12,2 C 57 % 1012,0 hPa 0,0 l/m 0 min 0 min 0,0 UV-I 123 W/m 0,0 km/h (0 Bft)
22.04.2014 17:22 17,7 C 12,2 C 57 % 1012,0 hPa 0,0 l/m 0 min 0 min 0,0 UV-I 121 W/m 7,7 km/h (2 Bft)
22.04.2014 17:24 17,7 C 12,8 C 59 % 1012,0 hPa 0,0 l/m 0 min 0 min 0,0 UV-I 127 W/m 0,0 km/h (0 Bft)
22.04.2014 17:26 17,7 C 12,8 C 58 % 1012,0 hPa 0,0 l/m 0 min 0 min 0,0 UV-I 155 W/m 2,6 km/h (1 Bft)
22.04.2014 17:28 17,7 C 12,8 C 59 % 1012,0 hPa 0,0 l/m 0 min 0 min 0,0 UV-I 172 W/m 0,0 km/h (0 Bft)
22.04.2014 17:30 17,8 C 13,3 C 59 % 1012,0 hPa 0,0 l/m 0 min 0 min 0,0 UV-I 260 W/m 2,6 km/h (1 Bft)
22.04.2014 17:32 17,9 C 13,3 C 59 % 1012,1 hPa 0,0 l/m 2 min 0 min 0,0 UV-I 260 W/m 0,0 km/h (0 Bft)
22.04.2014 17:34 18,1 C 13,9 C 59 % 1012,1 hPa 0,0 l/m 0 min 0 min 0,5 UV-I 246 W/m 0,0 km/h (0 Bft)
22.04.2014 17:36 18,2 C 13,9 C 57 % 1012,1 hPa 0,0 l/m 2 min 0 min 0,6 UV-I 504 W/m 2,6 km/h (1 Bft)
22.04.2014 17:38 18,4 C 14,4 C 58 % 1012,2 hPa 0,0 l/m 2 min 0 min 0,6 UV-I 475 W/m 2,6 km/h (1 Bft)
22.04.2014 17:40 18,5 C 15,0 C 57 % 1012,2 hPa 0,0 l/m 2 min 0 min 0,7 UV-I 485 W/m 0,0 km/h (0 Bft)
22.04.2014 17:42 18,6 C 15,0 C 59 % 1012,2 hPa 0,0 l/m 2 min 0 min 0,7 UV-I 471 W/m 0,0 km/h (0 Bft)
22.04.2014 17:44 18,8 C 15,6 C 60 % 1012,2 hPa 0,0 l/m 2 min 0 min 0,7 UV-I 417 W/m 2,6 km/h (1 Bft)
22.04.2014 17:46 18,9 C 15,6 C 57 % 1012,2 hPa 0,0 l/m 2 min 0 min 0,6 UV-I 369 W/m 2,6 km/h (1 Bft)
22.04.2014 17:48 18,9 C 15,6 C 56 % 1012,2 hPa 0,0 l/m 2 min 0 min 0,6 UV-I 360 W/m 2,6 km/h (1 Bft)
22.04.2014 17:50 18,9 C 15,0 C 56 % 1012,2 hPa 0,0 l/m 0 min 0 min 0,6 UV-I 218 W/m 0,0 km/h (0 Bft)
22.04.2014 17:52 18,8 C 15,0 C 57 % 1012,3 hPa 0,0 l/m 0 min 0 min 0,5 UV-I 209 W/m 7,7 km/h (2 Bft)
22.04.2014 17:54 18,7 C 15,0 C 56 % 1012,3 hPa 0,0 l/m 2 min 0 min 0,5 UV-I 260 W/m 2,6 km/h (1 Bft)
22.04.2014 17:56 18,4 C 15,6 C 56 % 1012,3 hPa 0,0 l/m 2 min 0 min 0,5 UV-I 276 W/m 10,3 km/h (2 Bft)
22.04.2014 17:58 18,3 C 15,6 C 56 % 1012,3 hPa 0,0 l/m 2 min 0 min 0,0 UV-I 302 W/m 12,9 km/h (3 Bft)
22.04.2014 18:00 18,2 C 15,6 C 57 % 1012,3 hPa 0,0 l/m 2 min 0 min 0,0 UV-I 325 W/m 7,7 km/h (2 Bft)
22.04.2014 18:02 18,2 C 15,6 C 58 % 1012,3 hPa 0,0 l/m 2 min 0 min 0,0 UV-I 311 W/m 2,6 km/h (1 Bft)
22.04.2014 18:06 18,4 C 16,7 C 58 % 1012,4 hPa 0,0 l/m 0 min 0 min 0,0 UV-I 200 W/m 10,3 km/h (2 Bft)
22.04.2014 18:08 18,5 C 16,7 C 56 % 1012,4 hPa 0,0 l/m 0 min 0 min 0,0 UV-I 186 W/m 10,3 km/h (2 Bft)
22.04.2014 18:10 18,4 C 16,7 C 56 % 1012,3 hPa 0,0 l/m 0 min 0 min 0,0 UV-I 190 W/m 10,3 km/h (2 Bft)
22.04.2014 18:12 18,4 C 16,7 C 57 % 1012,3 hPa 0,0 l/m 0 min 0 min 0,0 UV-I 197 W/m 0,0 km/h (0 Bft)
22.04.2014 18:14 18,4 C 16,7 C 56 % 1012,3 hPa 0,0 l/m 0 min 0 min 0,0 UV-I 178 W/m 0,0 km/h (0 Bft)
22.04.2014 18:16 18,4 C 16,7 C 56 % 1012,3 hPa 0,0 l/m 0 min 0 min 0,0 UV-I 162 W/m 0,0 km/h (0 Bft)
22.04.2014 18:18 18,4 C 16,7 C 56 % 1012,3 hPa 0,0 l/m 0 min 0 min 0,0 UV-I 146 W/m 0,0 km/h (0 Bft)
22.04.2014 18:20 18,3 C 16,7 C 57 % 1012,3 hPa 0,0 l/m 0 min 0 min 0,0 UV-I 158 W/m 0,0 km/h (0 Bft)
22.04.2014 18:22 18,3 C 16,7 C 57 % 1012,3 hPa 0,0 l/m 2 min 0 min 0,0 UV-I 232 W/m 0,0 km/h (0 Bft)
22.04.2014 18:24 18,3 C 17,2 C 56 % 1012,3 hPa 0,0 l/m 0 min 0 min 0,0 UV-I 167 W/m 0,0 km/h (0 Bft)
22.04.2014 18:26 18,4 C 17,2 C 56 % 1012,3 hPa 0,0 l/m 0 min 0 min 0,0 UV-I 146 W/m 2,6 km/h (1 Bft)
22.04.2014 18:28 18,4 C 17,2 C 56 % 1012,3 hPa 0,0 l/m 0 min 0 min 0,0 UV-I 151 W/m 2,6 km/h (1 Bft)
22.04.2014 18:30 18,4 C 17,2 C 57 % 1012,3 hPa 0,0 l/m 2 min 0 min 0,0 UV-I 190 W/m 0,0 km/h (0 Bft)
22.04.2014 18:32 18,6 C 17,2 C 57 % 1012,3 hPa 0,0 l/m 0 min 0 min 0,0 UV-I 174 W/m 0,0 km/h (0 Bft)
22.04.2014 18:34 18,7 C 17,2 C 55 % 1012,3 hPa 0,0 l/m 0 min 0 min 0,0 UV-I 155 W/m 0,0 km/h (0 Bft)
22.04.2014 18:36 18,7 C 17,2 C 56 % 1012,4 hPa 0,0 l/m 0 min 0 min 0,0 UV-I 144 W/m 2,6 km/h (1 Bft)
22.04.2014 18:38 18,7 C 17,2 C 56 % 1012,4 hPa 0,0 l/m 0 min 0 min 0,0 UV-I 153 W/m 0,0 km/h (0 Bft)
22.04.2014 18:40 18,8 C 17,2 C 55 % 1012,4 hPa 0,0 l/m 0 min 0 min 0,0 UV-I 160 W/m 0,0 km/h (0 Bft)
22.04.2014 18:42 18,8 C 17,2 C 55 % 1012,4 hPa 0,0 l/m 2 min 0 min 0,0 UV-I 190 W/m 0,0 km/h (0 Bft)
22.04.2014 18:44 18,9 C 17,2 C 56 % 1012,4 hPa 0,0 l/m 0 min 0 min 0,0 UV-I 155 W/m 0,0 km/h (0 Bft)
22.04.2014 18:46 18,9 C 17,2 C 55 % 1012,5 hPa 0,0 l/m 0 min 0 min 0,0 UV-I 144 W/m 7,7 km/h (2 Bft)
22.04.2014 18:48 18,8 C 17,2 C 56 % 1012,5 hPa 0,0 l/m 0 min 0 min 0,0 UV-I 134 W/m 12,9 km/h (3 Bft)
22.04.2014 18:50 18,8 C 17,2 C 56 % 1012,5 hPa 0,0 l/m 0 min 0 min 0,0 UV-I 128 W/m 7,7 km/h (2 Bft)
22.04.2014 18:52 18,8 C 17,2 C 56 % 1012,4 hPa 0,0 l/m 0 min 0 min 0,0 UV-I 123 W/m 12,9 km/h (3 Bft)
22.04.2014 18:54 18,7 C 17,2 C 56 % 1012,5 hPa 0,0 l/m 0 min 0 min 0,0 UV-I 113 W/m 2,6 km/h (1 Bft)
22.04.2014 18:56 18,6 C 17,2 C 56 % 1012,5 hPa 0,0 l/m 0 min 0 min 0,0 UV-I 107 W/m 10,3 km/h (2 Bft)
22.04.2014 18:58 18,6 C 16,7 C 56 % 1012,5 hPa 0,0 l/m 0 min 0 min 0,0 UV-I 107 W/m 7,7 km/h (2 Bft)
22.04.2014 19:00 18,6 C 16,7 C 56 % 1012,5 hPa 0,0 l/m 0 min 0 min 0,0 UV-I 109 W/m 10,3 km/h (2 Bft)
22.04.2014 19:02 18,6 C 16,7 C 55 % 1012,5 hPa 0,0 l/m 0 min 0 min 0,0 UV-I 109 W/m 10,3 km/h (2 Bft)
22.04.2014 19:06 18,6 C 16,7 C 56 % 1012,6 hPa 0,0 l/m 0 min 0 min 0,0 UV-I 107 W/m 7,7 km/h (2 Bft)
22.04.2014 19:08 18,6 C 16,7 C 56 % 1012,6 hPa 0,0 l/m 0 min 0 min 0,0 UV-I 104 W/m 12,9 km/h (3 Bft)
22.04.2014 19:10 18,5 C 16,7 C 56 % 1012,6 hPa 0,0 l/m 0 min 0 min 0,0 UV-I 97 W/m 7,7 km/h (2 Bft)
22.04.2014 19:12 18,5 C 16,7 C 56 % 1012,6 hPa 0,0 l/m 0 min 0 min 0,0 UV-I 88 W/m 7,7 km/h (2 Bft)
22.04.2014 19:14 18,4 C 16,7 C 57 % 1012,7 hPa 0,0 l/m 0 min 0 min 0,0 UV-I 81 W/m 0,0 km/h (0 Bft)
22.04.2014 19:16 18,3 C 16,7 C 55 % 1012,7 hPa 0,0 l/m 0 min 0 min 0,0 UV-I 70 W/m 0,0 km/h (0 Bft)
22.04.2014 19:18 18,2 C 16,7 C 56 % 1012,7 hPa 0,0 l/m 0 min 0 min 0,0 UV-I 60 W/m 0,0 km/h (0 Bft)
22.04.2014 19:20 18,1 C 16,1 C 56 % 1012,7 hPa 0,0 l/m 0 min 0 min 0,0 UV-I 54 W/m 7,7 km/h (2 Bft)
22.04.2014 19:22 18,1 C 16,1 C 57 % 1012,8 hPa 0,0 l/m 0 min 0 min 0,0 UV-I 51 W/m 7,7 km/h (2 Bft)
22.04.2014 19:24 18,0 C 16,1 C 57 % 1012,9 hPa 0,0 l/m 0 min 0 min 0,0 UV-I 47 W/m 0,0 km/h (0 Bft)
22.04.2014 19:26 17,9 C 16,1 C 57 % 1012,9 hPa 0,0 l/m 0 min 0 min 0,0 UV-I 44 W/m 0,0 km/h (0 Bft)
22.04.2014 19:28 17,9 C 16,1 C 57 % 1012,9 hPa 0,0 l/m 0 min 0 min 0,0 UV-I 42 W/m 0,0 km/h (0 Bft)
22.04.2014 19:30 17,9 C 16,1 C 58 % 1012,9 hPa 0,0 l/m 0 min 0 min 0,0 UV-I 39 W/m 0,0 km/h (0 Bft)
22.04.2014 19:32 17,8 C 15,6 C 57 % 1012,9 hPa 0,0 l/m 0 min 0 min 0,0 UV-I 37 W/m 10,3 km/h (2 Bft)
22.04.2014 19:34 17,7 C 15,6 C 57 % 1013,0 hPa 0,0 l/m 0 min 0 min 0,0 UV-I 37 W/m 0,0 km/h (0 Bft)
22.04.2014 19:36 17,6 C 15,6 C 58 % 1013,1 hPa 0,0 l/m 0 min 0 min 0,0 UV-I 37 W/m 0,0 km/h (0 Bft)
22.04.2014 19:38 17,6 C 15,6 C 58 % 1013,1 hPa 0,0 l/m 0 min 0 min 0,0 UV-I 37 W/m 0,0 km/h (0 Bft)
22.04.2014 19:40 17,5 C 15,0 C 59 % 1013,1 hPa 0,0 l/m 0 min 0 min 0,0 UV-I 37 W/m 0,0 km/h (0 Bft)
22.04.2014 19:42 17,4 C 15,0 C 60 % 1013,2 hPa 0,0 l/m 0 min 0 min 0,0 UV-I 39 W/m 0,0 km/h (0 Bft)
22.04.2014 19:44 17,3 C 15,0 C 59 % 1013,2 hPa 0,0 l/m 0 min 0 min 0,0 UV-I 37 W/m 0,0 km/h (0 Bft)
22.04.2014 19:46 17,3 C 15,0 C 59 % 1013,2 hPa 0,0 l/m 0 min 0 min 0,0 UV-I 33 W/m 0,0 km/h (0 Bft)
22.04.2014 19:48 17,2 C 15,0 C 59 % 1013,3 hPa 0,0 l/m 0 min 0 min 0,0 UV-I 30 W/m 0,0 km/h (0 Bft)
22.04.2014 19:50 17,2 C 15,0 C 59 % 1013,3 hPa 0,0 l/m 0 min 0 min 0,0 UV-I 28 W/m 0,0 km/h (0 Bft)
22.04.2014 19:52 17,1 C 15,0 C 59 % 1013,2 hPa 0,0 l/m 0 min 0 min 0,0 UV-I 23 W/m 0,0 km/h (0 Bft)
22.04.2014 19:54 17,1 C 14,4 C 59 % 1013,3 hPa 0,0 l/m 0 min 0 min 0,0 UV-I 21 W/m 0,0 km/h (0 Bft)
22.04.2014 19:56 17,0 C 14,4 C 60 % 1013,3 hPa 0,0 l/m 0 min 0 min 0,0 UV-I 21 W/m 0,0 km/h (0 Bft)
22.04.2014 19:58 17,0 C 14,4 C 59 % 1013,3 hPa 0,0 l/m 0 min 0 min 0,0 UV-I 19 W/m 0,0 km/h (0 Bft)
22.04.2014 20:00 16,9 C 14,4 C 60 % 1013,3 hPa 0,0 l/m 0 min 0 min 0,0 UV-I 19 W/m 0,0 km/h (0 Bft)
22.04.2014 20:02 16,9 C 14,4 C 60 % 1013,3 hPa 0,0 l/m 0 min 0 min 0,0 UV-I 19 W/m 0,0 km/h (0 Bft)
22.04.2014 20:06 16,8 C 14,4 C 61 % 1013,4 hPa 0,0 l/m 0 min 0 min 0,0 UV-I 14 W/m 0,0 km/h (0 Bft)
22.04.2014 20:08 16,7 C 14,4 C 61 % 1013,4 hPa 0,0 l/m 0 min 0 min 0,0 UV-I 14 W/m 0,0 km/h (0 Bft)
22.04.2014 20:10 16,7 C 13,9 C 61 % 1013,5 hPa 0,0 l/m 0 min 0 min 0,0 UV-I 12 W/m 2,6 km/h (1 Bft)
22.04.2014 20:12 16,5 C 13,9 C 64 % 1013,6 hPa 0,0 l/m 0 min 0 min 0,0 UV-I 12 W/m 12,9 km/h (3 Bft)
22.04.2014 20:14 16,2 C 13,9 C 67 % 1013,6 hPa 0,0 l/m 0 min 0 min 0,0 UV-I 12 W/m 2,6 km/h (1 Bft)
22.04.2014 20:16 15,9 C 13,9 C 68 % 1013,6 hPa 0,0 l/m 0 min 0 min 0,0 UV-I 11 W/m 0,0 km/h (0 Bft)
22.04.2014 20:18 15,7 C 13,9 C 69 % 1013,7 hPa 0,0 l/m 0 min 0 min 0,0 UV-I 11 W/m 7,7 km/h (2 Bft)
22.04.2014 20:20 15,5 C 13,3 C 70 % 1013,7 hPa 0,0 l/m 0 min 0 min 0,0 UV-I 9 W/m 10,3 km/h (2 Bft)
22.04.2014 20:22 15,3 C 13,3 C 71 % 1013,8 hPa 0,0 l/m 0 min 0 min 0,0 UV-I 9 W/m 10,3 km/h (2 Bft)
22.04.2014 20:24 15,1 C 13,3 C 71 % 1013,8 hPa 0,0 l/m 0 min 0 min 0,0 UV-I 7 W/m 2,6 km/h (1 Bft)
22.04.2014 20:26 14,9 C 12,8 C 72 % 1013,9 hPa 0,0 l/m 0 min 0 min 0,0 UV-I 7 W/m 15,4 km/h (3 Bft)
22.04.2014 20:28 14,7 C 12,8 C 73 % 1013,8 hPa 0,0 l/m 0 min 0 min 0,0 UV-I 7 W/m 7,7 km/h (2 Bft)
22.04.2014 20:30 14,6 C 12,8 C 73 % 1013,9 hPa 0,0 l/m 0 min 0 min 0,0 UV-I 5 W/m 2,6 km/h (1 Bft)
22.04.2014 20:32 14,4 C 12,8 C 74 % 1013,9 hPa 0,0 l/m 0 min 0 min 0,0 UV-I 5 W/m 7,7 km/h (2 Bft)
22.04.2014 20:34 14,3 C 12,8 C 75 % 1013,9 hPa 0,0 l/m 0 min 0 min 0,0 UV-I 5 W/m 12,9 km/h (3 Bft)
22.04.2014 20:36 14,2 C 12,8 C 75 % 1013,9 hPa 0,0 l/m 0 min 0 min 0,0 UV-I 5 W/m 0,0 km/h (0 Bft)
22.04.2014 20:38 14,2 C 12,2 C 75 % 1014,0 hPa 0,0 l/m 0 min 0 min 0,0 UV-I 0 W/m 0,0 km/h (0 Bft)
22.04.2014 20:40 14,2 C 12,2 C 76 % 1014,1 hPa 0,0 l/m 0 min 0 min 0,0 UV-I 0 W/m 0,0 km/h (0 Bft)
22.04.2014 20:42 14,1 C 12,2 C 76 % 1014,0 hPa 0,0 l/m 0 min 0 min 0,0 UV-I 0 W/m 0,0 km/h (0 Bft)
22.04.2014 20:44 14,0 C 12,2 C 76 % 1014,0 hPa 0,0 l/m 0 min 0 min 0,0 UV-I 0 W/m 2,6 km/h (1 Bft)
22.04.2014 20:46 13,9 C 12,2 C 77 % 1014,1 hPa 0,0 l/m 0 min 0 min 0,0 UV-I 0 W/m 0,0 km/h (0 Bft)
22.04.2014 20:48 13,9 C 12,2 C 77 % 1014,1 hPa 0,0 l/m 0 min 0 min 0,0 UV-I 0 W/m 0,0 km/h (0 Bft)
22.04.2014 20:50 13,9 C 12,2 C 77 % 1014,1 hPa 0,0 l/m 0 min 0 min 0,0 UV-I 0 W/m 0,0 km/h (0 Bft)
22.04.2014 20:52 13,8 C 12,2 C 77 % 1014,1 hPa 0,0 l/m 0 min 0 min 0,0 UV-I 0 W/m 0,0 km/h (0 Bft)
22.04.2014 20:54 13,8 C 12,2 C 78 % 1014,1 hPa 0,0 l/m 0 min 0 min 0,0 UV-I 0 W/m 0,0 km/h (0 Bft)
22.04.2014 20:56 13,8 C 12,2 C 78 % 1014,1 hPa 0,0 l/m 0 min 0 min 0,0 UV-I 0 W/m 0,0 km/h (0 Bft)
22.04.2014 20:58 13,8 C 12,2 C 78 % 1014,2 hPa 0,0 l/m 0 min 0 min 0,0 UV-I 0 W/m 0,0 km/h (0 Bft)
22.04.2014 21:00 13,7 C 12,2 C 78 % 1014,2 hPa 0,0 l/m 0 min 0 min 0,0 UV-I 0 W/m 0,0 km/h (0 Bft)
22.04.2014 21:02 13,7 C 12,2 C 78 % 1014,2 hPa 0,0 l/m 0 min 0 min 0,0 UV-I 0 W/m 0,0 km/h (0 Bft)
22.04.2014 21:06 13,7 C 12,2 C 79 % 1014,2 hPa 0,0 l/m 0 min 0 min 0,0 UV-I 0 W/m 0,0 km/h (0 Bft)
22.04.2014 21:08 13,7 C 12,2 C 79 % 1014,2 hPa 0,0 l/m 0 min 0 min 0,0 UV-I 0 W/m 0,0 km/h (0 Bft)
22.04.2014 21:10 13,7 C 12,2 C 79 % 1014,2 hPa 0,0 l/m 0 min 0 min 0,0 UV-I 0 W/m 0,0 km/h (0 Bft)
22.04.2014 21:12 13,6 C 12,2 C 79 % 1014,2 hPa 0,0 l/m 0 min 0 min 0,0 UV-I 0 W/m 0,0 km/h (0 Bft)
22.04.2014 21:14 13,6 C 12,2 C 79 % 1014,2 hPa 0,0 l/m 0 min 0 min 0,0 UV-I 0 W/m 0,0 km/h (0 Bft)
22.04.2014 21:16 13,6 C 12,2 C 79 % 1014,2 hPa 0,0 l/m 0 min 0 min 0,0 UV-I 0 W/m 0,0 km/h (0 Bft)
22.04.2014 21:18 13,6 C 12,2 C 79 % 1014,2 hPa 0,0 l/m 0 min 0 min 0,0 UV-I 0 W/m 0,0 km/h (0 Bft)
22.04.2014 21:20 13,6 C 12,2 C 79 % 1014,3 hPa 0,0 l/m 0 min 0 min 0,0 UV-I 0 W/m 0,0 km/h (0 Bft)
22.04.2014 21:22 13,5 C 12,2 C 80 % 1014,4 hPa 0,0 l/m 0 min 0 min 0,0 UV-I 0 W/m 0,0 km/h (0 Bft)
22.04.2014 21:24 13,5 C 12,2 C 80 % 1014,4 hPa 0,0 l/m 0 min 0 min 0,0 UV-I 0 W/m 0,0 km/h (0 Bft)
22.04.2014 21:26 13,4 C 12,2 C 80 % 1014,4 hPa 0,0 l/m 0 min 0 min 0,0 UV-I 0 W/m 0,0 km/h (0 Bft)
22.04.2014 21:28 13,4 C 12,2 C 80 % 1014,5 hPa 0,0 l/m 0 min 0 min 0,0 UV-I 0 W/m 0,0 km/h (0 Bft)
22.04.2014 21:30 13,4 C 12,2 C 80 % 1014,4 hPa 0,0 l/m 0 min 0 min 0,0 UV-I 0 W/m 0,0 km/h (0 Bft)
22.04.2014 21:32 13,4 C 12,2 C 80 % 1014,5 hPa 0,0 l/m 0 min 0 min 0,0 UV-I 0 W/m 0,0 km/h (0 Bft)
22.04.2014 21:34 13,4 C 12,2 C 80 % 1014,5 hPa 0,0 l/m 0 min 0 min 0,0 UV-I 0 W/m 0,0 km/h (0 Bft)
22.04.2014 21:36 13,4 C 12,2 C 80 % 1014,6 hPa 0,0 l/m 0 min 0 min 0,0 UV-I 0 W/m 0,0 km/h (0 Bft)
22.04.2014 21:38 13,4 C 12,2 C 80 % 1014,5 hPa 0,0 l/m 0 min 0 min 0,0 UV-I 0 W/m 0,0 km/h (0 Bft)
22.04.2014 21:40 13,4 C 12,2 C 80 % 1014,6 hPa 0,0 l/m 0 min 0 min 0,0 UV-I 0 W/m 0,0 km/h (0 Bft)
22.04.2014 21:42 13,4 C 12,2 C 80 % 1014,7 hPa 0,0 l/m 0 min 0 min 0,0 UV-I 0 W/m 0,0 km/h (0 Bft)
22.04.2014 21:44 13,5 C 12,2 C 80 % 1014,6 hPa 0,0 l/m 0 min 0 min 0,0 UV-I 0 W/m 2,6 km/h (1 Bft)
22.04.2014 21:46 13,5 C 12,2 C 80 % 1014,6 hPa 0,0 l/m 0 min 0 min 0,0 UV-I 0 W/m 0,0 km/h (0 Bft)
22.04.2014 21:48 13,5 C 12,2 C 80 % 1014,6 hPa 0,0 l/m 0 min 0 min 0,0 UV-I 0 W/m 0,0 km/h (0 Bft)
22.04.2014 21:50 13,5 C 12,2 C 80 % 1014,7 hPa 0,0 l/m 0 min 0 min 0,0 UV-I 0 W/m 0,0 km/h (0 Bft)
22.04.2014 21:52 13,5 C 12,2 C 80 % 1014,7 hPa 0,0 l/m 0 min 0 min 0,0 UV-I 0 W/m 0,0 km/h (0 Bft)
22.04.2014 21:54 13,5 C 11,7 C 80 % 1014,6 hPa 0,0 l/m 0 min 0 min 0,0 UV-I 0 W/m 0,0 km/h (0 Bft)
22.04.2014 21:56 13,5 C 11,7 C 80 % 1014,6 hPa 0,0 l/m 0 min 0 min 0,0 UV-I 0 W/m 0,0 km/h (0 Bft)
22.04.2014 21:58 13,4 C 11,7 C 80 % 1014,6 hPa 0,0 l/m 0 min 0 min 0,0 UV-I 0 W/m 0,0 km/h (0 Bft)
22.04.2014 22:00 13,4 C 11,7 C 81 % 1014,6 hPa 0,0 l/m 0 min 0 min 0,0 UV-I 0 W/m 0,0 km/h (0 Bft)
22.04.2014 22:02 13,4 C 11,7 C 81 % 1014,6 hPa 0,0 l/m 0 min 0 min 0,0 UV-I 0 W/m 0,0 km/h (0 Bft)
22.04.2014 22:06 13,4 C 11,7 C 81 % 1014,6 hPa 0,0 l/m 0 min 0 min 0,0 UV-I 0 W/m 0,0 km/h (0 Bft)
22.04.2014 22:08 13,4 C 11,7 C 81 % 1014,6 hPa 0,0 l/m 0 min 0 min 0,0 UV-I 0 W/m 0,0 km/h (0 Bft)
22.04.2014 22:10 13,4 C 11,7 C 81 % 1014,6 hPa 0,0 l/m 0 min 0 min 0,0 UV-I 0 W/m 0,0 km/h (0 Bft)
22.04.2014 22:12 13,3 C 11,7 C 81 % 1014,6 hPa 0,0 l/m 0 min 0 min 0,0 UV-I 0 W/m 0,0 km/h (0 Bft)
22.04.2014 22:14 13,3 C 11,7 C 81 % 1014,6 hPa 0,0 l/m 0 min 0 min 0,0 UV-I 0 W/m 0,0 km/h (0 Bft)
22.04.2014 22:16 13,3 C 11,7 C 81 % 1014,6 hPa 0,0 l/m 0 min 0 min 0,0 UV-I 0 W/m 0,0 km/h (0 Bft)
22.04.2014 22:18 13,3 C 11,7 C 81 % 1014,6 hPa 0,0 l/m 0 min 0 min 0,0 UV-I 0 W/m 0,0 km/h (0 Bft)
22.04.2014 22:20 13,3 C 11,7 C 81 % 1014,7 hPa 0,0 l/m 0 min 0 min 0,0 UV-I 0 W/m 0,0 km/h (0 Bft)
22.04.2014 22:22 13,3 C 11,7 C 81 % 1014,7 hPa 0,0 l/m 0 min 0 min 0,0 UV-I 0 W/m 0,0 km/h (0 Bft)
22.04.2014 22:24 13,3 C 11,7 C 81 % 1014,7 hPa 0,0 l/m 0 min 0 min 0,0 UV-I 0 W/m 0,0 km/h (0 Bft)
22.04.2014 22:26 13,3 C 11,7 C 81 % 1014,6 hPa 0,0 l/m 0 min 0 min 0,0 UV-I 0 W/m 0,0 km/h (0 Bft)
22.04.2014 22:28 13,3 C 11,7 C 81 % 1014,6 hPa 0,0 l/m 0 min 0 min 0,0 UV-I 0 W/m 0,0 km/h (0 Bft)
22.04.2014 22:30 13,2 C 11,7 C 81 % 1014,6 hPa 0,0 l/m 0 min 0 min 0,0 UV-I 0 W/m 0,0 km/h (0 Bft)
22.04.2014 22:32 13,3 C 11,7 C 81 % 1014,7 hPa 0,0 l/m 0 min 0 min 0,0 UV-I 0 W/m 0,0 km/h (0 Bft)
22.04.2014 22:34 13,2 C 11,7 C 82 % 1014,7 hPa 0,0 l/m 0 min 0 min 0,0 UV-I 0 W/m 0,0 km/h (0 Bft)
22.04.2014 22:36 13,2 C 11,7 C 82 % 1014,8 hPa 0,0 l/m 0 min 0 min 0,0 UV-I 0 W/m 0,0 km/h (0 Bft)
22.04.2014 22:38 13,2 C 11,7 C 82 % 1014,9 hPa 0,0 l/m 0 min 0 min 0,0 UV-I 0 W/m 0,0 km/h (0 Bft)
22.04.2014 22:40 13,2 C 11,7 C 82 % 1014,8 hPa 0,0 l/m 0 min 0 min 0,0 UV-I 0 W/m 0,0 km/h (0 Bft)
22.04.2014 22:42 13,1 C 11,7 C 82 % 1014,8 hPa 0,0 l/m 0 min 0 min 0,0 UV-I 0 W/m 0,0 km/h (0 Bft)
22.04.2014 22:44 13,1 C 11,7 C 82 % 1014,8 hPa 0,0 l/m 0 min 0 min 0,0 UV-I 0 W/m 0,0 km/h (0 Bft)
22.04.2014 22:46 13,1 C 11,7 C 82 % 1014,9 hPa 0,0 l/m 0 min 0 min 0,0 UV-I 0 W/m 0,0 km/h (0 Bft)
22.04.2014 22:48 13,1 C 11,7 C 82 % 1014,9 hPa 0,0 l/m 0 min 0 min 0,0 UV-I 0 W/m 0,0 km/h (0 Bft)
22.04.2014 22:50 13,1 C 11,1 C 83 % 1015,0 hPa 0,0 l/m 0 min 0 min 0,0 UV-I 0 W/m 0,0 km/h (0 Bft)
22.04.2014 22:52 13,1 C 11,7 C 83 % 1015,0 hPa 0,0 l/m 0 min 0 min 0,0 UV-I 0 W/m 0,0 km/h (0 Bft)
22.04.2014 22:54 13,0 C 11,7 C 83 % 1015,0 hPa 0,0 l/m 0 min 0 min 0,0 UV-I 0 W/m 0,0 km/h (0 Bft)
22.04.2014 22:56 13,0 C 11,7 C 83 % 1015,0 hPa 0,0 l/m 0 min 0 min 0,0 UV-I 0 W/m 0,0 km/h (0 Bft)
22.04.2014 22:58 13,0 C 11,7 C 83 % 1015,0 hPa 0,0 l/m 0 min 0 min 0,0 UV-I 0 W/m 0,0 km/h (0 Bft)
22.04.2014 23:00 12,9 C 11,7 C 83 % 1015,0 hPa 0,0 l/m 0 min 0 min 0,0 UV-I 0 W/m 0,0 km/h (0 Bft)
22.04.2014 23:02 13,0 C 11,7 C 83 % 1014,9 hPa 0,0 l/m 0 min 0 min 0,0 UV-I 0 W/m 0,0 km/h (0 Bft)
22.04.2014 23:06 12,9 C 11,7 C 83 % 1015,0 hPa 0,0 l/m 0 min 0 min 0,0 UV-I 0 W/m 0,0 km/h (0 Bft)
22.04.2014 23:08 12,9 C 11,7 C 83 % 1015,0 hPa 0,0 l/m 0 min 0 min 0,0 UV-I 0 W/m 0,0 km/h (0 Bft)
22.04.2014 23:10 12,9 C 11,1 C 84 % 1015,1 hPa 0,0 l/m 0 min 0 min 0,0 UV-I 0 W/m 0,0 km/h (0 Bft)
22.04.2014 23:12 12,9 C 11,1 C 84 % 1015,1 hPa 0,0 l/m 0 min 0 min 0,0 UV-I 0 W/m 0,0 km/h (0 Bft)
22.04.2014 23:14 12,9 C 11,1 C 84 % 1015,1 hPa 0,0 l/m 0 min 0 min 0,0 UV-I 0 W/m 0,0 km/h (0 Bft)
22.04.2014 23:16 12,9 C 11,1 C 84 % 1015,2 hPa 0,0 l/m 0 min 0 min 0,0 UV-I 0 W/m 0,0 km/h (0 Bft)
22.04.2014 23:18 12,9 C 11,1 C 84 % 1015,2 hPa 0,0 l/m 0 min 0 min 0,0 UV-I 0 W/m 0,0 km/h (0 Bft)
22.04.2014 23:20 12,9 C 11,1 C 84 % 1015,2 hPa 0,0 l/m 0 min 0 min 0,0 UV-I 0 W/m 0,0 km/h (0 Bft)
22.04.2014 23:22 12,9 C 11,1 C 84 % 1015,3 hPa 0,0 l/m 0 min 0 min 0,0 UV-I 0 W/m 0,0 km/h (0 Bft)
22.04.2014 23:24 12,9 C 11,1 C 84 % 1015,3 hPa 0,0 l/m 0 min 0 min 0,0 UV-I 0 W/m 0,0 km/h (0 Bft)
22.04.2014 23:26 12,9 C 11,1 C 84 % 1015,3 hPa 0,0 l/m 0 min 0 min 0,0 UV-I 0 W/m 0,0 km/h (0 Bft)
22.04.2014 23:28 12,9 C 11,1 C 84 % 1015,2 hPa 0,0 l/m 0 min 0 min 0,0 UV-I 0 W/m 0,0 km/h (0 Bft)
22.04.2014 23:30 12,9 C 11,1 C 85 % 1015,3 hPa 0,0 l/m 0 min 0 min 0,0 UV-I 0 W/m 0,0 km/h (0 Bft)
22.04.2014 23:32 12,8 C 11,1 C 85 % 1015,3 hPa 0,0 l/m 0 min 0 min 0,0 UV-I 0 W/m 0,0 km/h (0 Bft)
22.04.2014 23:34 12,8 C 11,1 C 85 % 1015,3 hPa 0,0 l/m 0 min 0 min 0,0 UV-I 0 W/m 0,0 km/h (0 Bft)
22.04.2014 23:36 12,8 C 11,1 C 84 % 1015,3 hPa 0,0 l/m 0 min 0 min 0,0 UV-I 0 W/m 0,0 km/h (0 Bft)
22.04.2014 23:38 12,8 C 11,1 C 84 % 1015,3 hPa 0,0 l/m 0 min 0 min 0,0 UV-I 0 W/m 0,0 km/h (0 Bft)
22.04.2014 23:40 12,8 C 11,1 C 84 % 1015,3 hPa 0,0 l/m 0 min 0 min 0,0 UV-I 0 W/m 0,0 km/h (0 Bft)
22.04.2014 23:42 12,7 C 11,1 C 85 % 1015,3 hPa 0,0 l/m 0 min 0 min 0,0 UV-I 0 W/m 0,0 km/h (0 Bft)
22.04.2014 23:44 12,8 C 11,1 C 85 % 1015,4 hPa 0,0 l/m 0 min 0 min 0,0 UV-I 0 W/m 0,0 km/h (0 Bft)
22.04.2014 23:46 12,7 C 11,1 C 85 % 1015,4 hPa 0,0 l/m 0 min 0 min 0,0 UV-I 0 W/m 0,0 km/h (0 Bft)
22.04.2014 23:48 12,7 C 11,1 C 85 % 1015,4 hPa 0,0 l/m 0 min 0 min 0,0 UV-I 0 W/m 0,0 km/h (0 Bft)
22.04.2014 23:50 12,7 C 10,6 C 85 % 1015,4 hPa 0,0 l/m 0 min 0 min 0,0 UV-I 0 W/m 0,0 km/h (0 Bft)
22.04.2014 23:52 12,7 C 10,6 C 85 % 1015,4 hPa 0,0 l/m 0 min 0 min 0,0 UV-I 0 W/m 0,0 km/h (0 Bft)
22.04.2014 23:54 12,6 C 10,6 C 85 % 1015,4 hPa 0,0 l/m 0 min 0 min 0,0 UV-I 0 W/m 0,0 km/h (0 Bft)
22.04.2014 23:56 12,6 C 10,6 C 85 % 1015,4 hPa 0,0 l/m 0 min 0 min 0,0 UV-I 0 W/m 0,0 km/h (0 Bft)
22.04.2014 23:58 12,6 C 10,6 C 86 % 1015,3 hPa 0,0 l/m 0 min 0 min 0,0 UV-I 0 W/m 0,0 km/h (0 Bft)
_ Min-Zeit 03:20 02:42 15:34 00:00 - - - - - 00:00
Minimum _ 8,2 C 6,7 C 52 % 1004,4 hPa - - - - - 0,0 km/h (0 Bft)
_ Max-Zeit 16:34 14:08 06:06 23:44 00:00 08:20 00:00 14:50 14:52 09:52
Maximum _ 19,6 C 20,6 C 97 % 1015,4 hPa 0,0 l/m 2 min 0 min 3,3 UV-I 972 W/m 18,0 km/h
S (3 Bft)
Durchschnitt _ 13,6 C 12,7 C 77 % 1010,0 hPa #0,0 l/m #7:06 h #0 min. 1,7 UV-I 334 W/m 3,1 km/h (1 Bft)
© 2014 W. Hausmann